Observation data for Stamford on 07/03/2020      Previous  Date       Current Mesonet Observations  Soil Data  Daily Summary Page  Observations in Plain Language
KST2 030500Z 15007KT 27/21 A2998 RMK A01 T02710210  RH  069%=      5-min Rain = 0
KST2 030501Z 15007KT 27/21 A2998 RMK A01 T02710210  RH  069%=      5-min Rain = 0
KST2 030502Z 15007KT 27/21 A2998 RMK A01 T02700210  RH  069%=      5-min Rain = 0
KST2 030503Z 14007KT 27/21 A2998 RMK A01 T02700210  RH  070%=      5-min Rain = 0
KST2 030504Z 14007KT 27/21 A2998 RMK A01 T02700210  RH  070%=      5-min Rain = 0
KST2 030505Z 14007KT 27/21 A2999 RMK A01 T02690210  RH  070%=      5-min Rain = 0
KST2 030506Z 15007KT 27/21 A2999 RMK A01 T02690210  RH  070%=      5-min Rain = 0
KST2 030507Z 15007KT 27/21 A2999 RMK A01 T02680210  RH  070%=      5-min Rain = 0
KST2 030508Z 15007KT 27/21 A2999 RMK A01 T02680210  RH  071%=      5-min Rain = 0
KST2 030509Z 15007KT 27/21 A2999 RMK A01 T02670210  RH  071%=      5-min Rain = 0
KST2 030510Z 15007KT 27/21 A2999 RMK A01 T02670210  RH  071%=      5-min Rain = 0
KST2 030511Z 15007KT 27/21 A2999 RMK A01 T02670210  RH  071%=      5-min Rain = 0
KST2 030512Z 16007KT 27/21 A2999 RMK A01 T02670210  RH  071%=      5-min Rain = 0
KST2 030513Z 16007KT 27/21 A2998 RMK A01 T02670210  RH  071%=      5-min Rain = 0
KST2 030514Z 16007KT 27/21 A2998 RMK A01 T02670210  RH  071%=      5-min Rain = 0
KST2 030515Z 16007KT 27/21 A2998 RMK A01 T02670210  RH  071%=      5-min Rain = 0
KST2 030516Z 16006KT 27/21 A2998 RMK A01 T02670210  RH  071%=      5-min Rain = 0
KST2 030517Z 16007KT 27/21 A2998 RMK A01 T02670210  RH  071%=      5-min Rain = 0
KST2 030518Z 16007KT 27/21 A2998 RMK A01 T02670210  RH  071%=      5-min Rain = 0
KST2 030519Z 16006KT 27/21 A2998 RMK A01 T02660209  RH  071%=      5-min Rain = 0
KST2 030520Z 16006KT 27/21 A2998 RMK A01 T02660209  RH  071%=      5-min Rain = 0
KST2 030521Z 16006KT 27/21 A2998 RMK A01 T02670209  RH  071%=      5-min Rain = 0
KST2 030522Z 16006KT 27/21 A2998 RMK A01 T02660210  RH  071%=      5-min Rain = 0
KST2 030523Z 15006KT 27/21 A2998 RMK A01 T02660210  RH  071%=      5-min Rain = 0
KST2 030524Z 15006KT 27/21 A2998 RMK A01 T02660210  RH  071%=      5-min Rain = 0
KST2 030525Z 15006KT 27/21 A2998 RMK A01 T02660210  RH  071%=      5-min Rain = 0
KST2 030526Z 15005KT 27/21 A2998 RMK A01 T02650210  RH  071%=      5-min Rain = 0
KST2 030527Z 15005KT 27/21 A2998 RMK A01 T02650210  RH  072%=      5-min Rain = 0
KST2 030528Z 14005KT 26/21 A2998 RMK A01 T02640210  RH  072%=      5-min Rain = 0
KST2 030529Z 14005KT 26/21 A2998 RMK A01 T02640210  RH  072%=      5-min Rain = 0
KST2 030530Z 14005KT 26/21 A2998 RMK A01 T02630210  RH  073%=      5-min Rain = 0
KST2 030531Z 14005KT 26/21 A2998 RMK A01 T02620210  RH  073%=      5-min Rain = 0
KST2 030532Z 14004KT 26/21 A2998 RMK A01 T02610210  RH  073%=      5-min Rain = 0
KST2 030533Z 14005KT 26/21 A2998 RMK A01 T02600209  RH  074%=      5-min Rain = 0
KST2 030534Z 14005KT 26/21 A2998 RMK A01 T02600209  RH  074%=      5-min Rain = 0
KST2 030535Z 14005KT 26/21 A2998 RMK A01 T02600210  RH  074%=      5-min Rain = 0
KST2 030536Z 14005KT 26/21 A2998 RMK A01 T02590210  RH  074%=      5-min Rain = 0
KST2 030537Z 14005KT 26/21 A2998 RMK A01 T02590210  RH  074%=      5-min Rain = 0
KST2 030538Z 14006KT 26/21 A2998 RMK A01 T02580209  RH  074%=      5-min Rain = 0
KST2 030539Z 14006KT 26/21 A2998 RMK A01 T02580209  RH  074%=      5-min Rain = 0
KST2 030540Z 14006KT 26/21 A2997 RMK A01 T02580209  RH  074%=      5-min Rain = 0
KST2 030541Z 15006KT 26/21 A2997 RMK A01 T02580209  RH  075%=      5-min Rain = 0
KST2 030542Z 15006KT 26/21 A2997 RMK A01 T02580209  RH  075%=      5-min Rain = 0
KST2 030543Z 15006KT 26/21 A2997 RMK A01 T02580209  RH  075%=      5-min Rain = 0
KST2 030544Z 15006KT 26/21 A2997 RMK A01 T02580209  RH  075%=      5-min Rain = 0
KST2 030545Z 16006KT 26/21 A2997 RMK A01 T02580209  RH  075%=      5-min Rain = 0
KST2 030546Z 16006KT 26/21 A2997 RMK A01 T02580209  RH  075%=      5-min Rain = 0
KST2 030547Z 16006KT 26/21 A2997 RMK A01 T02580210  RH  075%=      5-min Rain = 0
KST2 030548Z 17006KT 26/21 A2997 RMK A01 T02570209  RH  075%=      5-min Rain = 0
KST2 030549Z 17005KT 26/21 A2997 RMK A01 T02570210  RH  075%=      5-min Rain = 0
KST2 030550Z 16005KT 26/21 A2997 RMK A01 T02570210  RH  075%=      5-min Rain = 0
KST2 030551Z 16005KT 26/21 A2997 RMK A01 T02570209  RH  075%=      5-min Rain = 0
KST2 030552Z 16005KT 26/21 A2997 RMK A01 T02560209  RH  075%=      5-min Rain = 0
KST2 030553Z 16005KT 26/21 A2997 RMK A01 T02560210  RH  075%=      5-min Rain = 0
KST2 030554Z 16005KT 26/21 A2997 RMK A01 T02560210  RH  075%=      5-min Rain = 0
KST2 030555Z 16006KT 26/21 A2997 RMK A01 T02560210  RH  075%=      5-min Rain = 0
KST2 030556Z 16006KT 26/21 A2997 RMK A01 T02560209  RH  075%=      5-min Rain = 0
KST2 030557Z 16006KT 26/21 A2997 RMK A01 T02560209  RH  075%=      5-min Rain = 0
KST2 030558Z 16006KT 26/21 A2997 RMK A01 T02570209  RH  075%=      5-min Rain = 0
KST2 030559Z 16006KT 26/21 A2997 RMK A01 T02570209  RH  075%=      5-min Rain = 0
KST2 030600Z 16006KT 26/21 A2997 RMK A01 T02580209  RH  075%=      5-min Rain = 0
KST2 030601Z 16006KT 26/21 A2997 RMK A01 T02580209  RH  074%=      5-min Rain = 0
KST2 030602Z 16006KT 26/21 A2997 RMK A01 T02580210  RH  074%=      5-min Rain = 0
KST2 030603Z 15006KT 26/21 A2997 RMK A01 T02580209  RH  074%=      5-min Rain = 0
KST2 030604Z 15006KT 26/21 A2997 RMK A01 T02580209  RH  074%=      5-min Rain = 0
KST2 030605Z 15005KT 26/21 A2997 RMK A01 T02580210  RH  075%=      5-min Rain = 0
KST2 030606Z 15006KT 26/21 A2997 RMK A01 T02570210  RH  075%=      5-min Rain = 0
KST2 030607Z 15006KT 26/21 A2997 RMK A01 T02570210  RH  075%=      5-min Rain = 0
KST2 030608Z 15006KT 26/21 A2997 RMK A01 T02560210  RH  076%=      5-min Rain = 0
KST2 030609Z 15006KT 26/21 A2997 RMK A01 T02560210  RH  076%=      5-min Rain = 0
KST2 030610Z 15006KT 26/21 A2997 RMK A01 T02560210  RH  076%=      5-min Rain = 0
KST2 030611Z 15006KT 26/21 A2997 RMK A01 T02560210  RH  076%=      5-min Rain = 0
KST2 030612Z 15007KT 26/21 A2997 RMK A01 T02560210  RH  076%=      5-min Rain = 0
KST2 030613Z 15006KT 26/21 A2997 RMK A01 T02560210  RH  076%=      5-min Rain = 0
KST2 030614Z 15006KT 26/21 A2997 RMK A01 T02560210  RH  076%=      5-min Rain = 0
KST2 030615Z 15006KT 26/21 A2997 RMK A01 T02560210  RH  076%=      5-min Rain = 0
KST2 030616Z 15006KT 26/21 A2996 RMK A01 T02560210  RH  076%=      5-min Rain = 0
KST2 030617Z 15006KT 26/21 A2996 RMK A01 T02550210  RH  076%=      5-min Rain = 0
KST2 030618Z 16006KT 26/21 A2996 RMK A01 T02550210  RH  076%=      5-min Rain = 0
KST2 030619Z 16006KT 26/21 A2996 RMK A01 T02550210  RH  076%=      5-min Rain = 0
KST2 030620Z 16006KT 26/21 A2996 RMK A01 T02550210  RH  076%=      5-min Rain = 0
KST2 030621Z 17006KT 26/21 A2996 RMK A01 T02560211  RH  076%=      5-min Rain = 0
KST2 030622Z 17006KT 26/21 A2996 RMK A01 T02550210  RH  076%=      5-min Rain = 0
KST2 030623Z 17006KT 26/21 A2996 RMK A01 T02550210  RH  076%=      5-min Rain = 0
KST2 030624Z 18007KT 26/21 A2996 RMK A01 T02550209  RH  076%=      5-min Rain = 0
KST2 030625Z 18007KT 26/21 A2996 RMK A01 T02560209  RH  075%=      5-min Rain = 0
KST2 030626Z 18007KT 26/21 A2996 RMK A01 T02560209  RH  075%=      5-min Rain = 0
KST2 030627Z 18007KT 26/21 A2996 RMK A01 T02570209  RH  075%=      5-min Rain = 0
KST2 030628Z 18007KT 26/21 A2996 RMK A01 T02580209  RH  074%=      5-min Rain = 0
KST2 030629Z 18007KT 26/21 A2996 RMK A01 T02590209  RH  074%=      5-min Rain = 0
KST2 030630Z 18007KT 26/21 A2996 RMK A01 T02590209  RH  074%=      5-min Rain = 0
KST2 030631Z 18008KT 26/21 A2996 RMK A01 T02600209  RH  074%=      5-min Rain = 0
KST2 030632Z 18008KT 26/21 A2996 RMK A01 T02600209  RH  073%=      5-min Rain = 0
KST2 030633Z 18007KT 26/21 A2996 RMK A01 T02600209  RH  073%=      5-min Rain = 0
KST2 030634Z 18007KT 26/21 A2996 RMK A01 T02600209  RH  074%=      5-min Rain = 0
KST2 030635Z 18007KT 26/21 A2996 RMK A01 T02590209  RH  074%=      5-min Rain = 0
KST2 030636Z 18006KT 26/21 A2996 RMK A01 T02600209  RH  074%=      5-min Rain = 0
KST2 030637Z 18005KT 26/21 A2996 RMK A01 T02590209  RH  074%=      5-min Rain = 0
KST2 030638Z 18005KT 26/21 A2996 RMK A01 T02580209  RH  074%=      5-min Rain = 0
KST2 030639Z 19004KT 26/21 A2996 RMK A01 T02580209  RH  074%=      5-min Rain = 0
KST2 030640Z 18004KT 26/21 A2996 RMK A01 T02580209  RH  074%=      5-min Rain = 0
KST2 030641Z 18004KT 26/21 A2996 RMK A01 T02580208  RH  074%=      5-min Rain = 0
KST2 030642Z 18004KT 26/21 A2996 RMK A01 T02580208  RH  074%=      5-min Rain = 0
KST2 030643Z 18004KT 26/21 A2996 RMK A01 T02580209  RH  074%=      5-min Rain = 0
KST2 030644Z 17004KT 26/21 A2996 RMK A01 T02580208  RH  074%=      5-min Rain = 0
KST2 030645Z 18003KT 26/21 A2996 RMK A01 T02580208  RH  074%=      5-min Rain = 0
KST2 030646Z 17004KT 26/21 A2996 RMK A01 T02580208  RH  074%=      5-min Rain = 0
KST2 030647Z 17004KT 26/21 A2996 RMK A01 T02570208  RH  074%=      5-min Rain = 0
KST2 030648Z 16004KT 26/21 A2996 RMK A01 T02570208  RH  074%=      5-min Rain = 0
KST2 030649Z 16004KT 26/21 A2996 RMK A01 T02560208  RH  075%=      5-min Rain = 0
KST2 030650Z 16003KT 26/21 A2996 RMK A01 T02560208  RH  075%=      5-min Rain = 0
KST2 030651Z 16003KT 26/21 A2996 RMK A01 T02550208  RH  075%=      5-min Rain = 0
KST2 030652Z 16002KT 26/21 A2996 RMK A01 T02550208  RH  075%=      5-min Rain = 0
KST2 030653Z 16002KT 25/21 A2996 RMK A01 T02540208  RH  075%=      5-min Rain = 0
KST2 030654Z 16002KT 25/21 A2996 RMK A01 T02540208  RH  076%=      5-min Rain = 0
KST2 030655Z 16002KT 25/21 A2996 RMK A01 T02530208  RH  076%=      5-min Rain = 0
KST2 030656Z 16002KT 25/21 A2996 RMK A01 T02530208  RH  076%=      5-min Rain = 0
KST2 030657Z 16002KT 25/21 A2996 RMK A01 T02530208  RH  076%=      5-min Rain = 0
KST2 030658Z 16003KT 25/21 A2996 RMK A01 T02530208  RH  076%=      5-min Rain = 0
KST2 030659Z 16003KT 25/21 A2996 RMK A01 T02530208  RH  076%=      5-min Rain = 0
KST2 030700Z 16003KT 25/21 A2996 RMK A01 T02530208  RH  076%=      5-min Rain = 0
KST2 030701Z 15002KT 25/21 A2996 RMK A01 T02530208  RH  076%=      5-min Rain = 0
KST2 030702Z 14002KT 25/21 A2996 RMK A01 T02530208  RH  076%=      5-min Rain = 0
KST2 030703Z 14003KT 25/21 A2996 RMK A01 T02520208  RH  076%=      5-min Rain = 0
KST2 030704Z 14003KT 25/21 A2996 RMK A01 T02510208  RH  077%=      5-min Rain = 0
KST2 030705Z 14003KT 25/21 A2996 RMK A01 T02510208  RH  077%=      5-min Rain = 0
KST2 030706Z 14004KT 25/21 A2996 RMK A01 T02500208  RH  077%=      5-min Rain = 0
KST2 030707Z 14003KT 25/21 A2996 RMK A01 T02490208  RH  078%=      5-min Rain = 0
KST2 030708Z 14003KT 25/21 A2996 RMK A01 T02490208  RH  078%=      5-min Rain = 0
KST2 030709Z 15004KT 25/21 A2996 RMK A01 T02480208  RH  078%=      5-min Rain = 0
KST2 030710Z 16003KT 25/21 A2996 RMK A01 T02470207  RH  078%=      5-min Rain = 0
KST2 030711Z 16003KT 25/21 A2996 RMK A01 T02470208  RH  079%=      5-min Rain = 0
KST2 030712Z 17004KT 25/21 A2996 RMK A01 T02470208  RH  079%=      5-min Rain = 0
KST2 030713Z 17004KT 25/21 A2996 RMK A01 T02470208  RH  079%=      5-min Rain = 0
KST2 030714Z 18004KT 25/21 A2996 RMK A01 T02470208  RH  079%=      5-min Rain = 0
KST2 030715Z 18004KT 25/21 A2996 RMK A01 T02470208  RH  079%=      5-min Rain = 0
KST2 030716Z 19004KT 25/21 A2996 RMK A01 T02470209  RH  079%=      5-min Rain = 0
KST2 030717Z 19005KT 25/21 A2996 RMK A01 T02460209  RH  080%=      5-min Rain = 0
KST2 030718Z 19005KT 25/21 A2996 RMK A01 T02450209  RH  080%=      5-min Rain = 0
KST2 030719Z 19005KT 24/21 A2996 RMK A01 T02430209  RH  081%=      5-min Rain = 0
KST2 030720Z 19006KT 24/21 A2996 RMK A01 T02420208  RH  081%=      5-min Rain = 0
KST2 030721Z 19006KT 24/21 A2996 RMK A01 T02420208  RH  081%=      5-min Rain = 0
KST2 030722Z 19007KT 24/21 A2996 RMK A01 T02430207  RH  081%=      5-min Rain = 0
KST2 030723Z 18006KT 24/21 A2996 RMK A01 T02440207  RH  080%=      5-min Rain = 0
KST2 030724Z 19006KT 25/21 A2996 RMK A01 T02460207  RH  079%=      5-min Rain = 0
KST2 030725Z 18006KT 25/21 A2996 RMK A01 T02470207  RH  078%=      5-min Rain = 0
KST2 030726Z 18007KT 25/21 A2996 RMK A01 T02490206  RH  077%=      5-min Rain = 0
KST2 030727Z 18007KT 25/21 A2996 RMK A01 T02510207  RH  076%=      5-min Rain = 0
KST2 030728Z 18006KT 25/21 A2996 RMK A01 T02520207  RH  076%=      5-min Rain = 0
KST2 030729Z 18006KT 25/21 A2996 RMK A01 T02530206  RH  075%=      5-min Rain = 0
KST2 030730Z 18006KT 25/21 A2996 RMK A01 T02530206  RH  075%=      5-min Rain = 0
KST2 030731Z 18006KT 25/21 A2996 RMK A01 T02540206  RH  075%=      5-min Rain = 0
KST2 030732Z 18005KT 25/21 A2996 RMK A01 T02540206  RH  075%=      5-min Rain = 0
KST2 030733Z 17005KT 25/21 A2996 RMK A01 T02540206  RH  075%=      5-min Rain = 0
KST2 030734Z 17005KT 25/21 A2996 RMK A01 T02530206  RH  075%=      5-min Rain = 0
KST2 030735Z 16005KT 25/21 A2996 RMK A01 T02530206  RH  075%=      5-min Rain = 0
KST2 030736Z 16004KT 25/21 A2996 RMK A01 T02530206  RH  075%=      5-min Rain = 0
KST2 030737Z 15004KT 25/21 A2996 RMK A01 T02520206  RH  075%=      5-min Rain = 0
KST2 030738Z 14004KT 25/21 A2996 RMK A01 T02520206  RH  076%=      5-min Rain = 0
KST2 030739Z 13004KT 25/21 A2996 RMK A01 T02510207  RH  076%=      5-min Rain = 0
KST2 030740Z 11004KT 25/21 A2996 RMK A01 T02500207  RH  077%=      5-min Rain = 0
KST2 030741Z 11005KT 25/21 A2996 RMK A01 T02490207  RH  077%=      5-min Rain = 0
KST2 030742Z 11005KT 25/21 A2996 RMK A01 T02490207  RH  078%=      5-min Rain = 0
KST2 030743Z 10005KT 25/21 A2996 RMK A01 T02480207  RH  078%=      5-min Rain = 0
KST2 030744Z 10005KT 25/21 A2996 RMK A01 T02480207  RH  078%=      5-min Rain = 0
KST2 030745Z 09005KT 25/21 A2996 RMK A01 T02480207  RH  078%=      5-min Rain = 0
KST2 030746Z 09005KT 25/21 A2996 RMK A01 T02480208  RH  078%=      5-min Rain = 0
KST2 030747Z 08005KT 25/21 A2996 RMK A01 T02480207  RH  078%=      5-min Rain = 0
KST2 030748Z 08005KT 25/21 A2996 RMK A01 T02470207  RH  078%=      5-min Rain = 0
KST2 030749Z 09005KT 25/21 A2996 RMK A01 T02470207  RH  078%=      5-min Rain = 0
KST2 030750Z 09005KT 25/21 A2996 RMK A01 T02470208  RH  079%=      5-min Rain = 0
KST2 030751Z 09005KT 25/21 A2996 RMK A01 T02460207  RH  079%=      5-min Rain = 0
KST2 030752Z 09004KT 25/21 A2996 RMK A01 T02460208  RH  079%=      5-min Rain = 0
KST2 030753Z 09005KT 25/21 A2996 RMK A01 T02460208  RH  079%=      5-min Rain = 0
KST2 030754Z 09005KT 25/21 A2996 RMK A01 T02450208  RH  079%=      5-min Rain = 0
KST2 030755Z 10004KT 25/21 A2996 RMK A01 T02450207  RH  080%=      5-min Rain = 0
KST2 030756Z 10004KT 25/21 A2996 RMK A01 T02450208  RH  080%=      5-min Rain = 0
KST2 030757Z 10004KT 25/21 A2996 RMK A01 T02450207  RH  080%=      5-min Rain = 0
KST2 030758Z 10004KT 25/21 A2996 RMK A01 T02450208  RH  080%=      5-min Rain = 0
KST2 030759Z 11004KT 25/21 A2996 RMK A01 T02450208  RH  080%=      5-min Rain = 0
KST2 030800Z 11003KT 25/21 A2996 RMK A01 T02450208  RH  080%=      5-min Rain = 0
KST2 030801Z 11003KT 25/21 A2996 RMK A01 T02450208  RH  080%=      5-min Rain = 0
KST2 030802Z 11003KT 25/21 A2996 RMK A01 T02450208  RH  080%=      5-min Rain = 0
KST2 030803Z 11003KT 25/21 A2996 RMK A01 T02450207  RH  080%=      5-min Rain = 0
KST2 030804Z 11003KT 25/21 A2996 RMK A01 T02450207  RH  080%=      5-min Rain = 0
KST2 030805Z 11003KT 25/21 A2996 RMK A01 T02450207  RH  080%=      5-min Rain = 0
KST2 030806Z 11003KT 25/21 A2996 RMK A01 T02450208  RH  080%=      5-min Rain = 0
KST2 030807Z 11003KT 25/21 A2996 RMK A01 T02450208  RH  080%=      5-min Rain = 0
KST2 030808Z 12003KT 25/21 A2996 RMK A01 T02450208  RH  080%=      5-min Rain = 0
KST2 030809Z 12003KT 25/21 A2996 RMK A01 T02450208  RH  080%=      5-min Rain = 0
KST2 030810Z 12003KT 24/21 A2996 RMK A01 T02440207  RH  080%=      5-min Rain = 0
KST2 030811Z 12003KT 24/21 A2996 RMK A01 T02440207  RH  080%=      5-min Rain = 0
KST2 030812Z 12003KT 24/21 A2996 RMK A01 T02440207  RH  080%=      5-min Rain = 0
KST2 030813Z 13003KT 24/21 A2996 RMK A01 T02440207  RH  080%=      5-min Rain = 0
KST2 030814Z 13003KT 24/21 A2996 RMK A01 T02430207  RH  080%=      5-min Rain = 0
KST2 030815Z 14003KT 24/21 A2996 RMK A01 T02430206  RH  080%=      5-min Rain = 0
KST2 030816Z 14003KT 24/21 A2996 RMK A01 T02430206  RH  080%=      5-min Rain = 0
KST2 030817Z 14003KT 24/21 A2996 RMK A01 T02430206  RH  080%=      5-min Rain = 0
KST2 030818Z 14003KT 24/21 A2996 RMK A01 T02430206  RH  080%=      5-min Rain = 0
KST2 030819Z 15003KT 24/21 A2996 RMK A01 T02430206  RH  080%=      5-min Rain = 0
KST2 030820Z 15003KT 24/21 A2996 RMK A01 T02430206  RH  080%=      5-min Rain = 0
KST2 030821Z 16003KT 24/21 A2996 RMK A01 T02420205  RH  080%=      5-min Rain = 0
KST2 030822Z 16003KT 24/21 A2996 RMK A01 T02420205  RH  080%=      5-min Rain = 0
KST2 030823Z 17004KT 24/21 A2996 RMK A01 T02430205  RH  080%=      5-min Rain = 0
KST2 030824Z 17003KT 24/21 A2996 RMK A01 T02430205  RH  080%=      5-min Rain = 0
KST2 030825Z 17003KT 24/20 A2996 RMK A01 T02420204  RH  079%=      5-min Rain = 0
KST2 030826Z 18004KT 24/20 A2996 RMK A01 T02420204  RH  079%=      5-min Rain = 0
KST2 030827Z 17004KT 24/20 A2996 RMK A01 T02430203  RH  079%=      5-min Rain = 0
KST2 030828Z 18004KT 24/20 A2996 RMK A01 T02440203  RH  078%=      5-min Rain = 0
KST2 030829Z 18005KT 24/20 A2996 RMK A01 T02440203  RH  078%=      5-min Rain = 0
KST2 030830Z 18005KT 25/20 A2996 RMK A01 T02460203  RH  077%=      5-min Rain = 0
KST2 030831Z 18005KT 25/20 A2996 RMK A01 T02460203  RH  077%=      5-min Rain = 0
KST2 030832Z 18005KT 25/20 A2996 RMK A01 T02470202  RH  076%=      5-min Rain = 0
KST2 030833Z 18006KT 25/20 A2996 RMK A01 T02460202  RH  076%=      5-min Rain = 0
KST2 030834Z 18006KT 25/20 A2996 RMK A01 T02470203  RH  077%=      5-min Rain = 0
KST2 030835Z 18006KT 25/20 A2996 RMK A01 T02470203  RH  077%=      5-min Rain = 0
KST2 030836Z 18007KT 25/20 A2996 RMK A01 T02460203  RH  077%=      5-min Rain = 0
KST2 030837Z 17007KT 25/20 A2996 RMK A01 T02450203  RH  077%=      5-min Rain = 0
KST2 030838Z 17007KT 25/20 A2996 RMK A01 T02450203  RH  078%=      5-min Rain = 0
KST2 030839Z 18006KT 24/20 A2996 RMK A01 T02440203  RH  078%=      5-min Rain = 0
KST2 030840Z 18007KT 24/20 A2996 RMK A01 T02440203  RH  078%=      5-min Rain = 0
KST2 030841Z 18006KT 24/20 A2996 RMK A01 T02430203  RH  078%=      5-min Rain = 0
KST2 030842Z 18007KT 24/20 A2996 RMK A01 T02430203  RH  078%=      5-min Rain = 0
KST2 030843Z 18007KT 24/20 A2996 RMK A01 T02430203  RH  078%=      5-min Rain = 0
KST2 030844Z 18007KT 24/20 A2996 RMK A01 T02430203  RH  078%=      5-min Rain = 0
KST2 030845Z 18007KT 24/20 A2996 RMK A01 T02430202  RH  078%=      5-min Rain = 0
KST2 030846Z 18007KT 24/20 A2996 RMK A01 T02430202  RH  078%=      5-min Rain = 0
KST2 030847Z 18006KT 24/20 A2996 RMK A01 T02430202  RH  078%=      5-min Rain = 0
KST2 030848Z 17006KT 24/20 A2996 RMK A01 T02430202  RH  078%=      5-min Rain = 0
KST2 030849Z 17006KT 24/20 A2996 RMK A01 T02440203  RH  078%=      5-min Rain = 0
KST2 030850Z 17006KT 24/20 A2996 RMK A01 T02430203  RH  078%=      5-min Rain = 0
KST2 030851Z 17006KT 24/20 A2996 RMK A01 T02420203  RH  078%=      5-min Rain = 0
KST2 030852Z 17005KT 24/20 A2996 RMK A01 T02420202  RH  079%=      5-min Rain = 0
KST2 030853Z 17005KT 24/20 A2996 RMK A01 T02420202  RH  079%=      5-min Rain = 0
KST2 030854Z 16005KT 24/20 A2996 RMK A01 T02410203  RH  079%=      5-min Rain = 0
KST2 030855Z 16005KT 24/20 A2996 RMK A01 T02410202  RH  079%=      5-min Rain = 0
KST2 030856Z 16004KT 24/20 A2996 RMK A01 T02400203  RH  079%=      5-min Rain = 0
KST2 030857Z 15004KT 24/20 A2996 RMK A01 T02390202  RH  080%=      5-min Rain = 0
KST2 030858Z 14004KT 24/20 A2997 RMK A01 T02390203  RH  080%=      5-min Rain = 0
KST2 030859Z 14004KT 24/20 A2997 RMK A01 T02380203  RH  081%=      5-min Rain = 0
KST2 030900Z 13004KT 24/20 A2997 RMK A01 T02370204  RH  082%=      5-min Rain = 0
KST2 030901Z 12005KT 24/20 A2997 RMK A01 T02350203  RH  082%=      5-min Rain = 0
KST2 030902Z 12005KT 23/20 A2997 RMK A01 T02340203  RH  083%=      5-min Rain = 0
KST2 030903Z 11006KT 23/20 A2997 RMK A01 T02330203  RH  083%=      5-min Rain = 0
KST2 030904Z 10006KT 23/20 A2997 RMK A01 T02320203  RH  084%=      5-min Rain = 0
KST2 030905Z 10006KT 23/20 A2997 RMK A01 T02320203  RH  084%=      5-min Rain = 0
KST2 030906Z 09007KT 23/20 A2997 RMK A01 T02320204  RH  084%=      5-min Rain = 0
KST2 030907Z 09007KT 23/20 A2997 RMK A01 T02320204  RH  084%=      5-min Rain = 0
KST2 030908Z 09007KT 23/20 A2997 RMK A01 T02320204  RH  084%=      5-min Rain = 0
KST2 030909Z 09007KT 23/20 A2997 RMK A01 T02320204  RH  084%=      5-min Rain = 0
KST2 030910Z 09007KT 23/20 A2997 RMK A01 T02320204  RH  084%=      5-min Rain = 0
KST2 030911Z 09008KT 23/20 A2997 RMK A01 T02310204  RH  084%=      5-min Rain = 0
KST2 030912Z 09007KT 23/20 A2997 RMK A01 T02320204  RH  084%=      5-min Rain = 0
KST2 030913Z 09007KT 23/20 A2997 RMK A01 T02320204  RH  084%=      5-min Rain = 0
KST2 030914Z 09006KT 23/20 A2997 RMK A01 T02320204  RH  084%=      5-min Rain = 0
KST2 030915Z 09006KT 23/20 A2997 RMK A01 T02320204  RH  084%=      5-min Rain = 0
KST2 030916Z 10006KT 23/20 A2997 RMK A01 T02330204  RH  084%=      5-min Rain = 0
KST2 030917Z 10006KT 23/20 A2998 RMK A01 T02330204  RH  084%=      5-min Rain = 0
KST2 030918Z 10006KT 23/20 A2998 RMK A01 T02330204  RH  084%=      5-min Rain = 0
KST2 030919Z 10006KT 23/20 A2998 RMK A01 T02320203  RH  084%=      5-min Rain = 0
KST2 030920Z 11006KT 23/20 A2998 RMK A01 T02330202  RH  083%=      5-min Rain = 0
KST2 030921Z 11006KT 23/20 A2998 RMK A01 T02330202  RH  083%=      5-min Rain = 0
KST2 030922Z 11007KT 23/20 A2998 RMK A01 T02330201  RH  082%=      5-min Rain = 0
KST2 030923Z 12007KT 23/20 A2998 RMK A01 T02340201  RH  082%=      5-min Rain = 0
KST2 030924Z 12007KT 24/20 A2998 RMK A01 T02350201  RH  081%=      5-min Rain = 0
KST2 030925Z 12007KT 24/20 A2998 RMK A01 T02350201  RH  081%=      5-min Rain = 0
KST2 030926Z 12006KT 24/20 A2998 RMK A01 T02350201  RH  081%=      5-min Rain = 0
KST2 030927Z 11006KT 24/20 A2998 RMK A01 T02360201  RH  081%=      5-min Rain = 0
KST2 030928Z 12006KT 24/20 A2998 RMK A01 T02360201  RH  081%=      5-min Rain = 0
KST2 030929Z 11006KT 24/20 A2998 RMK A01 T02350201  RH  081%=      5-min Rain = 0
KST2 030930Z 11006KT 24/20 A2998 RMK A01 T02350201  RH  081%=      5-min Rain = 0
KST2 030931Z 11006KT 23/20 A2998 RMK A01 T02340201  RH  082%=      5-min Rain = 0
KST2 030932Z 11006KT 23/20 A2998 RMK A01 T02340201  RH  082%=      5-min Rain = 0
KST2 030933Z 11006KT 23/20 A2998 RMK A01 T02340201  RH  082%=      5-min Rain = 0
KST2 030934Z 11006KT 23/20 A2998 RMK A01 T02330201  RH  082%=      5-min Rain = 0
KST2 030935Z 11006KT 23/20 A2998 RMK A01 T02330200  RH  082%=      5-min Rain = 0
KST2 030936Z 11006KT 23/20 A2998 RMK A01 T02330201  RH  082%=      5-min Rain = 0
KST2 030937Z 11006KT 23/20 A2998 RMK A01 T02330201  RH  082%=      5-min Rain = 0
KST2 030938Z 11006KT 23/20 A2998 RMK A01 T02330200  RH  082%=      5-min Rain = 0
KST2 030939Z 11006KT 23/20 A2998 RMK A01 T02330200  RH  082%=      5-min Rain = 0
KST2 030940Z 12005KT 23/20 A2998 RMK A01 T02330200  RH  082%=      5-min Rain = 0
KST2 030941Z 12005KT 23/20 A2998 RMK A01 T02330200  RH  082%=      5-min Rain = 0
KST2 030942Z 12005KT 23/20 A2998 RMK A01 T02330200  RH  082%=      5-min Rain = 0
KST2 030943Z 12005KT 23/20 A2998 RMK A01 T02330200  RH  082%=      5-min Rain = 0
KST2 030944Z 12006KT 23/20 A2998 RMK A01 T02330200  RH  082%=      5-min Rain = 0
KST2 030945Z 13006KT 23/20 A2998 RMK A01 T02320199  RH  082%=      5-min Rain = 0
KST2 030946Z 13006KT 23/20 A2998 RMK A01 T02320199  RH  082%=      5-min Rain = 0
KST2 030947Z 12006KT 23/20 A2998 RMK A01 T02320199  RH  081%=      5-min Rain = 0
KST2 030948Z 12006KT 23/20 A2998 RMK A01 T02330199  RH  081%=      5-min Rain = 0
KST2 030949Z 12007KT 23/20 A2998 RMK A01 T02320199  RH  082%=      5-min Rain = 0
KST2 030950Z 12007KT 23/20 A2998 RMK A01 T02320199  RH  082%=      5-min Rain = 0
KST2 030951Z 12007KT 23/20 A2999 RMK A01 T02320199  RH  082%=      5-min Rain = 0
KST2 030952Z 12007KT 23/20 A2999 RMK A01 T02320198  RH  082%=      5-min Rain = 0
KST2 030953Z 13007KT 23/20 A2999 RMK A01 T02320198  RH  082%=      5-min Rain = 0
KST2 030954Z 13007KT 23/20 A2999 RMK A01 T02320198  RH  081%=      5-min Rain = 0
KST2 030955Z 13006KT 23/20 A2998 RMK A01 T02320198  RH  081%=      5-min Rain = 0
KST2 030956Z 13006KT 23/20 A2998 RMK A01 T02320198  RH  081%=      5-min Rain = 0
KST2 030957Z 14007KT 23/20 A2998 RMK A01 T02320198  RH  081%=      5-min Rain = 0
KST2 030958Z 14007KT 23/20 A2998 RMK A01 T02310198  RH  081%=      5-min Rain = 0
KST2 030959Z 14007KT 23/20 A2998 RMK A01 T02310197  RH  081%=      5-min Rain = 0
KST2 031000Z 14007KT 23/20 A2998 RMK A01 T02320198  RH  081%=      5-min Rain = 0
KST2 031001Z 14007KT 23/20 A2998 RMK A01 T02320198  RH  081%=      5-min Rain = 0
KST2 031002Z 14007KT 23/20 A2998 RMK A01 T02320198  RH  081%=      5-min Rain = 0
KST2 031003Z 14007KT 23/20 A2998 RMK A01 T02330197  RH  080%=      5-min Rain = 0
KST2 031004Z 14007KT 23/20 A2998 RMK A01 T02330197  RH  080%=      5-min Rain = 0
KST2 031005Z 15007KT 23/20 A2998 RMK A01 T02340197  RH  080%=      5-min Rain = 0
KST2 031006Z 14007KT 23/20 A2998 RMK A01 T02340197  RH  080%=      5-min Rain = 0
KST2 031007Z 14007KT 24/20 A2998 RMK A01 T02350197  RH  079%=      5-min Rain = 0
KST2 031008Z 14007KT 24/20 A2998 RMK A01 T02350197  RH  079%=      5-min Rain = 0
KST2 031009Z 14007KT 24/20 A2998 RMK A01 T02350197  RH  079%=      5-min Rain = 0
KST2 031010Z 14007KT 24/20 A2998 RMK A01 T02350197  RH  079%=      5-min Rain = 0
KST2 031011Z 14007KT 24/20 A2999 RMK A01 T02350197  RH  079%=      5-min Rain = 0
KST2 031012Z 14006KT 24/20 A2999 RMK A01 T02360197  RH  079%=      5-min Rain = 0
KST2 031013Z 14006KT 24/20 A2999 RMK A01 T02360197  RH  079%=      5-min Rain = 0
KST2 031014Z 14006KT 24/20 A2999 RMK A01 T02360197  RH  079%=      5-min Rain = 0
KST2 031015Z 14006KT 24/20 A2999 RMK A01 T02360197  RH  079%=      5-min Rain = 0
KST2 031016Z 14006KT 24/20 A2998 RMK A01 T02360197  RH  079%=      5-min Rain = 0
KST2 031017Z 14006KT 24/20 A2998 RMK A01 T02360197  RH  079%=      5-min Rain = 0
KST2 031018Z 14006KT 24/20 A2998 RMK A01 T02360197  RH  079%=      5-min Rain = 0
KST2 031019Z 14006KT 24/20 A2998 RMK A01 T02360197  RH  079%=      5-min Rain = 0
KST2 031020Z 14006KT 24/20 A2998 RMK A01 T02360197  RH  079%=      5-min Rain = 0
KST2 031021Z 15006KT 24/20 A2998 RMK A01 T02360196  RH  079%=      5-min Rain = 0
KST2 031022Z 15005KT 24/20 A2998 RMK A01 T02360197  RH  078%=      5-min Rain = 0
KST2 031023Z 14006KT 24/20 A2998 RMK A01 T02360197  RH  078%=      5-min Rain = 0
KST2 031024Z 14005KT 24/20 A2998 RMK A01 T02360197  RH  078%=      5-min Rain = 0
KST2 031025Z 14006KT 24/20 A2998 RMK A01 T02360196  RH  078%=      5-min Rain = 0
KST2 031026Z 14005KT 24/20 A2998 RMK A01 T02360197  RH  078%=      5-min Rain = 0
KST2 031027Z 14005KT 24/20 A2998 RMK A01 T02360197  RH  078%=      5-min Rain = 0
KST2 031028Z 14005KT 24/20 A2999 RMK A01 T02360197  RH  079%=      5-min Rain = 0
KST2 031029Z 14005KT 24/20 A2999 RMK A01 T02360197  RH  079%=      5-min Rain = 0
KST2 031030Z 14005KT 24/20 A2999 RMK A01 T02360197  RH  079%=      5-min Rain = 0
KST2 031031Z 14005KT 24/20 A2999 RMK A01 T02360197  RH  079%=      5-min Rain = 0
KST2 031032Z 14005KT 24/20 A2998 RMK A01 T02360197  RH  079%=      5-min Rain = 0
KST2 031033Z 15005KT 24/20 A2998 RMK A01 T02360198  RH  079%=      5-min Rain = 0
KST2 031034Z 15005KT 24/20 A2998 RMK A01 T02360197  RH  079%=      5-min Rain = 0
KST2 031035Z 15005KT 24/20 A2998 RMK A01 T02360198  RH  079%=      5-min Rain = 0
KST2 031036Z 15005KT 24/20 A2998 RMK A01 T02360197  RH  079%=      5-min Rain = 0
KST2 031037Z 16005KT 24/20 A2998 RMK A01 T02360198  RH  079%=      5-min Rain = 0
KST2 031038Z 16005KT 24/20 A2998 RMK A01 T02360197  RH  079%=      5-min Rain = 0
KST2 031039Z 16005KT 24/20 A2998 RMK A01 T02360198  RH  079%=      5-min Rain = 0
KST2 031040Z 16005KT 24/20 A2998 RMK A01 T02360198  RH  079%=      5-min Rain = 0
KST2 031041Z 16005KT 24/20 A2998 RMK A01 T02360198  RH  079%=      5-min Rain = 0
KST2 031042Z 16005KT 24/20 A2998 RMK A01 T02360198  RH  079%=      5-min Rain = 0
KST2 031043Z 16005KT 24/20 A2998 RMK A01 T02360198  RH  079%=      5-min Rain = 0
KST2 031044Z 16004KT 24/20 A2998 RMK A01 T02360199  RH  079%=      5-min Rain = 0
KST2 031045Z 15004KT 24/20 A2998 RMK A01 T02360199  RH  080%=      5-min Rain = 0
KST2 031046Z 15004KT 24/20 A2998 RMK A01 T02360199  RH  080%=      5-min Rain = 0
KST2 031047Z 15004KT 24/20 A2999 RMK A01 T02360199  RH  080%=      5-min Rain = 0
KST2 031048Z 15004KT 24/20 A2999 RMK A01 T02360199  RH  080%=      5-min Rain = 0
KST2 031049Z 14003KT 24/20 A2999 RMK A01 T02360199  RH  080%=      5-min Rain = 0
KST2 031050Z 14003KT 24/20 A2999 RMK A01 T02360200  RH  080%=      5-min Rain = 0
KST2 031051Z 13004KT 24/20 A2999 RMK A01 T02360199  RH  080%=      5-min Rain = 0
KST2 031052Z 13004KT 24/20 A2999 RMK A01 T02350200  RH  080%=      5-min Rain = 0
KST2 031053Z 12004KT 24/20 A2999 RMK A01 T02350200  RH  081%=      5-min Rain = 0
KST2 031054Z 12004KT 24/20 A2999 RMK A01 T02350200  RH  081%=      5-min Rain = 0
KST2 031055Z 12004KT 24/20 A2999 RMK A01 T02350200  RH  081%=      5-min Rain = 0
KST2 031056Z 11004KT 23/20 A2999 RMK A01 T02340200  RH  081%=      5-min Rain = 0
KST2 031057Z 11004KT 23/20 A2999 RMK A01 T02340200  RH  081%=      5-min Rain = 0
KST2 031058Z 11004KT 23/20 A2999 RMK A01 T02340199  RH  081%=      5-min Rain = 0
KST2 031059Z 12004KT 23/20 A2999 RMK A01 T02340199  RH  081%=      5-min Rain = 0
KST2 031100Z 12004KT 23/20 A2999 RMK A01 T02340198  RH  080%=      5-min Rain = 0
KST2 031101Z 12005KT 24/20 A2999 RMK A01 T02350198  RH  080%=      5-min Rain = 0
KST2 031102Z 12005KT 24/20 A2999 RMK A01 T02350198  RH  080%=      5-min Rain = 0
KST2 031103Z 12005KT 24/20 A2999 RMK A01 T02350198  RH  080%=      5-min Rain = 0
KST2 031104Z 12005KT 24/20 A30 RMK A01 T02350197  RH  079%=      5-min Rain = 0
KST2 031105Z 13004KT 24/20 A30 RMK A01 T02360198  RH  079%=      5-min Rain = 0
KST2 031106Z 13004KT 24/20 A30 RMK A01 T02360197  RH  079%=      5-min Rain = 0
KST2 031107Z 13004KT 24/20 A30 RMK A01 T02360197  RH  079%=      5-min Rain = 0
KST2 031108Z 13003KT 24/20 A30 RMK A01 T02360197  RH  079%=      5-min Rain = 0
KST2 031109Z 13004KT 24/20 A30 RMK A01 T02360198  RH  079%=      5-min Rain = 0
KST2 031110Z 13003KT 24/20 A30 RMK A01 T02360197  RH  079%=      5-min Rain = 0
KST2 031111Z 13004KT 24/20 A30 RMK A01 T02360197  RH  079%=      5-min Rain = 0
KST2 031112Z 14003KT 24/20 A30 RMK A01 T02360197  RH  079%=      5-min Rain = 0
KST2 031113Z 14003KT 24/20 A30 RMK A01 T02360197  RH  079%=      5-min Rain = 0
KST2 031114Z 14003KT 24/20 A30 RMK A01 T02360197  RH  079%=      5-min Rain = 0
KST2 031115Z 14003KT 24/20 A30 RMK A01 T02360198  RH  079%=      5-min Rain = 0
KST2 031116Z 14003KT 24/20 A30 RMK A01 T02360198  RH  079%=      5-min Rain = 0
KST2 031117Z 14003KT 24/20 A30 RMK A01 T02360197  RH  079%=      5-min Rain = 0
KST2 031118Z 14003KT 24/20 A30 RMK A01 T02360198  RH  079%=      5-min Rain = 0
KST2 031119Z 13003KT 24/20 A30 RMK A01 T02360198  RH  079%=      5-min Rain = 0
KST2 031120Z 14003KT 24/20 A30 RMK A01 T02360198  RH  079%=      5-min Rain = 0
KST2 031121Z 14003KT 24/20 A30 RMK A01 T02360198  RH  079%=      5-min Rain = 0
KST2 031122Z 14003KT 24/20 A30 RMK A01 T02360198  RH  079%=      5-min Rain = 0
KST2 031123Z 14003KT 24/20 A30 RMK A01 T02360198  RH  079%=      5-min Rain = 0
KST2 031124Z 14003KT 24/20 A30 RMK A01 T02360198  RH  079%=      5-min Rain = 0
KST2 031125Z 15003KT 24/20 A30 RMK A01 T02360197  RH  079%=      5-min Rain = 0
KST2 031126Z 15003KT 24/20 A30 RMK A01 T02350197  RH  079%=      5-min Rain = 0
KST2 031127Z 15003KT 24/20 A30 RMK A01 T02350197  RH  079%=      5-min Rain = 0
KST2 031128Z 15003KT 24/20 A30 RMK A01 T02360197  RH  079%=      5-min Rain = 0
KST2 031129Z 15003KT 24/20 A30 RMK A01 T02360197  RH  079%=      5-min Rain = 0
KST2 031130Z 16003KT 24/20 A30 RMK A01 T02360197  RH  079%=      5-min Rain = 0
KST2 031131Z 16003KT 24/20 A30 RMK A01 T02360197  RH  079%=      5-min Rain = 0
KST2 031132Z 16003KT 24/20 A30 RMK A01 T02360197  RH  079%=      5-min Rain = 0
KST2 031133Z 16003KT 24/20 A30 RMK A01 T02360197  RH  079%=      5-min Rain = 0
KST2 031134Z 16002KT 24/20 A30 RMK A01 T02360198  RH  079%=      5-min Rain = 0
KST2 031135Z 16002KT 24/20 A30 RMK A01 T02360197  RH  079%=      5-min Rain = 0
KST2 031136Z 16002KT 24/20 A3001 RMK A01 T02360198  RH  079%=      5-min Rain = 0
KST2 031137Z 16003KT 24/20 A3001 RMK A01 T02360198  RH  079%=      5-min Rain = 0
KST2 031138Z 16003KT 24/20 A3001 RMK A01 T02350197  RH  079%=      5-min Rain = 0
KST2 031139Z 15002KT 24/20 A3001 RMK A01 T02350197  RH  079%=      5-min Rain = 0
KST2 031140Z 15002KT 24/20 A3001 RMK A01 T02350198  RH  080%=      5-min Rain = 0
KST2 031141Z 15002KT 24/20 A3001 RMK A01 T02350198  RH  080%=      5-min Rain = 0
KST2 031142Z 15002KT 24/20 A3001 RMK A01 T02350199  RH  080%=      5-min Rain = 0
KST2 031143Z 15002KT 24/20 A3001 RMK A01 T02350199  RH  080%=      5-min Rain = 0
KST2 031144Z 14002KT 24/20 A3001 RMK A01 T02350199  RH  080%=      5-min Rain = 0
KST2 031145Z 14002KT 23/20 A3001 RMK A01 T02340198  RH  080%=      5-min Rain = 0
KST2 031146Z 13002KT 23/20 A3001 RMK A01 T02340199  RH  080%=      5-min Rain = 0
KST2 031147Z 13002KT 23/20 A3001 RMK A01 T02340198  RH  080%=      5-min Rain = 0
KST2 031148Z 13002KT 23/20 A3001 RMK A01 T02340198  RH  080%=      5-min Rain = 0
KST2 031149Z 12002KT 24/20 A3001 RMK A01 T02350199  RH  080%=      5-min Rain = 0
KST2 031150Z 12003KT 24/20 A3001 RMK A01 T02350199  RH  080%=      5-min Rain = 0
KST2 031151Z 12003KT 24/20 A3001 RMK A01 T02350199  RH  080%=      5-min Rain = 0
KST2 031152Z 12003KT 24/20 A3001 RMK A01 T02350199  RH  080%=      5-min Rain = 0
KST2 031153Z 12003KT 24/20 A3001 RMK A01 T02350199  RH  080%=      5-min Rain = 0
KST2 031154Z 12003KT 23/20 A3001 RMK A01 T02340199  RH  080%=      5-min Rain = 0
KST2 031155Z 12003KT 23/20 A3001 RMK A01 T02340198  RH  080%=      5-min Rain = 0
KST2 031156Z 12004KT 23/20 A3001 RMK A01 T02330198  RH  081%=      5-min Rain = 0
KST2 031157Z 12004KT 23/20 A3001 RMK A01 T02330198  RH  081%=      5-min Rain = 0
KST2 031158Z 12004KT 23/20 A3001 RMK A01 T02320198  RH  081%=      5-min Rain = 0
KST2 031159Z 12004KT 23/20 A3001 RMK A01 T02310198  RH  081%=      5-min Rain = 0
KST2 031200Z 12004KT 23/20 A3001 RMK A01 T02310198  RH  081%=      5-min Rain = 0
KST2 031201Z 12004KT 23/20 A3001 RMK A01 T02320198  RH  081%=      5-min Rain = 0
KST2 031202Z 12004KT 23/20 A3001 RMK A01 T02310198  RH  082%=      5-min Rain = 0
KST2 031203Z 12004KT 23/20 A3001 RMK A01 T02310198  RH  082%=      5-min Rain = 0
KST2 031204Z 12004KT 23/20 A3001 RMK A01 T02310199  RH  082%=      5-min Rain = 0
KST2 031205Z 13004KT 23/20 A3001 RMK A01 T02310198  RH  082%=      5-min Rain = 0
KST2 031206Z 13004KT 23/20 A3001 RMK A01 T02300198  RH  082%=      5-min Rain = 0
KST2 031207Z 13004KT 23/20 A3001 RMK A01 T02300197  RH  082%=      5-min Rain = 0
KST2 031208Z 14004KT 23/20 A3001 RMK A01 T02300197  RH  082%=      5-min Rain = 0
KST2 031209Z 14004KT 23/20 A3001 RMK A01 T02300197  RH  082%=      5-min Rain = 0
KST2 031210Z 14004KT 23/20 A3001 RMK A01 T02300198  RH  082%=      5-min Rain = 0
KST2 031211Z 14004KT 23/20 A3001 RMK A01 T02300198  RH  082%=      5-min Rain = 0
KST2 031212Z 14004KT 23/20 A3001 RMK A01 T02300198  RH  082%=      5-min Rain = 0
KST2 031213Z 15004KT 23/20 A3001 RMK A01 T02300198  RH  082%=      5-min Rain = 0
KST2 031214Z 15004KT 23/20 A3001 RMK A01 T02300198  RH  082%=      5-min Rain = 0
KST2 031215Z 15004KT 23/20 A3001 RMK A01 T02300198  RH  082%=      5-min Rain = 0
KST2 031216Z 15004KT 23/20 A3001 RMK A01 T02300198  RH  082%=      5-min Rain = 0
KST2 031217Z 15004KT 23/20 A3001 RMK A01 T02300198  RH  082%=      5-min Rain = 0
KST2 031218Z 15005KT 23/20 A3001 RMK A01 T02300198  RH  082%=      5-min Rain = 0
KST2 031219Z 15005KT 23/20 A3001 RMK A01 T02300198  RH  082%=      5-min Rain = 0
KST2 031220Z 15005KT 23/20 A3001 RMK A01 T02300198  RH  083%=      5-min Rain = 0
KST2 031221Z 15005KT 23/20 A3001 RMK A01 T02300199  RH  083%=      5-min Rain = 0
KST2 031222Z 15005KT 23/20 A3001 RMK A01 T02290198  RH  083%=      5-min Rain = 0
KST2 031223Z 15005KT 23/20 A3001 RMK A01 T02290198  RH  083%=      5-min Rain = 0
KST2 031224Z 15004KT 23/20 A3002 RMK A01 T02290198  RH  083%=      5-min Rain = 0
KST2 031225Z 15004KT 23/20 A3002 RMK A01 T02290198  RH  083%=      5-min Rain = 0
KST2 031226Z 14004KT 23/20 A3002 RMK A01 T02290198  RH  083%=      5-min Rain = 0
KST2 031227Z 14004KT 23/20 A3002 RMK A01 T02290198  RH  083%=      5-min Rain = 0
KST2 031228Z 14004KT 23/20 A3002 RMK A01 T02290198  RH  083%=      5-min Rain = 0
KST2 031229Z 14004KT 23/20 A3002 RMK A01 T02280198  RH  083%=      5-min Rain = 0
KST2 031230Z 14004KT 23/20 A3002 RMK A01 T02290199  RH  083%=      5-min Rain = 0
KST2 031231Z 14005KT 23/20 A3002 RMK A01 T02280199  RH  083%=      5-min Rain = 0
KST2 031232Z 14004KT 23/20 A3002 RMK A01 T02280199  RH  084%=      5-min Rain = 0
KST2 031233Z 14004KT 23/20 A3002 RMK A01 T02280199  RH  084%=      5-min Rain = 0
KST2 031234Z 14005KT 23/20 A3002 RMK A01 T02270198  RH  084%=      5-min Rain = 0
KST2 031235Z 14005KT 23/20 A3002 RMK A01 T02270198  RH  084%=      5-min Rain = 0
KST2 031236Z 14004KT 23/20 A3002 RMK A01 T02270198  RH  083%=      5-min Rain = 0
KST2 031237Z 15005KT 23/20 A3002 RMK A01 T02280198  RH  083%=      5-min Rain = 0
KST2 031238Z 15005KT 23/20 A3002 RMK A01 T02280198  RH  083%=      5-min Rain = 0
KST2 031239Z 15005KT 23/20 A3002 RMK A01 T02280197  RH  083%=      5-min Rain = 0
KST2 031240Z 15005KT 23/20 A3002 RMK A01 T02280197  RH  083%=      5-min Rain = 0
KST2 031241Z 15005KT 23/20 A3002 RMK A01 T02280197  RH  083%=      5-min Rain = 0
KST2 031242Z 15005KT 23/20 A3002 RMK A01 T02290198  RH  083%=      5-min Rain = 0
KST2 031243Z 15005KT 23/20 A3002 RMK A01 T02290198  RH  083%=      5-min Rain = 0
KST2 031244Z 15005KT 23/20 A3002 RMK A01 T02300198  RH  082%=      5-min Rain = 0
KST2 031245Z 15005KT 23/20 A3002 RMK A01 T02300198  RH  082%=      5-min Rain = 0
KST2 031246Z 15005KT 23/20 A3002 RMK A01 T02300198  RH  082%=      5-min Rain = 0
KST2 031247Z 15005KT 23/20 A3002 RMK A01 T02310198  RH  082%=      5-min Rain = 0
KST2 031248Z 15005KT 23/20 A3002 RMK A01 T02320198  RH  081%=      5-min Rain = 0
KST2 031249Z 15004KT 23/20 A3002 RMK A01 T02320198  RH  081%=      5-min Rain = 0
KST2 031250Z 15005KT 23/20 A3002 RMK A01 T02330199  RH  081%=      5-min Rain = 0
KST2 031251Z 15005KT 23/20 A3002 RMK A01 T02340198  RH  080%=      5-min Rain = 0
KST2 031252Z 16005KT 24/20 A3002 RMK A01 T02350197  RH  079%=      5-min Rain = 0
KST2 031253Z 16004KT 24/20 A3002 RMK A01 T02360197  RH  079%=      5-min Rain = 0
KST2 031254Z 16004KT 24/20 A3002 RMK A01 T02370197  RH  078%=      5-min Rain = 0
KST2 031255Z 15005KT 24/20 A3002 RMK A01 T02380196  RH  077%=      5-min Rain = 0
KST2 031256Z 15005KT 24/20 A3002 RMK A01 T02390196  RH  077%=      5-min Rain = 0
KST2 031257Z 16004KT 24/20 A3002 RMK A01 T02400197  RH  077%=      5-min Rain = 0
KST2 031258Z 16004KT 24/20 A3002 RMK A01 T02400197  RH  077%=      5-min Rain = 0
KST2 031259Z 17004KT 24/20 A3002 RMK A01 T02410198  RH  077%=      5-min Rain = 0
KST2 031300Z 17004KT 24/20 A3002 RMK A01 T02420198  RH  076%=      5-min Rain = 0
KST2 031301Z 17005KT 24/20 A3002 RMK A01 T02420197  RH  076%=      5-min Rain = 0
KST2 031302Z 17005KT 24/20 A3002 RMK A01 T02430195  RH  074%=      5-min Rain = 0
KST2 031303Z 17004KT 24/20 A3002 RMK A01 T02440196  RH  074%=      5-min Rain = 0
KST2 031304Z 18004KT 25/20 A3002 RMK A01 T02450196  RH  074%=      5-min Rain = 0
KST2 031305Z 17004KT 25/20 A3002 RMK A01 T02460195  RH  073%=      5-min Rain = 0
KST2 031306Z 17005KT 25/20 A3002 RMK A01 T02470195  RH  073%=      5-min Rain = 0
KST2 031307Z 17004KT 25/20 A3002 RMK A01 T02470195  RH  073%=      5-min Rain = 0
KST2 031308Z 17004KT 25/20 A3002 RMK A01 T02480195  RH  073%=      5-min Rain = 0
KST2 031309Z 17005KT 25/20 A3002 RMK A01 T02480195  RH  072%=      5-min Rain = 0
KST2 031310Z 17005KT 25/19 A3002 RMK A01 T02490194  RH  072%=      5-min Rain = 0
KST2 031311Z 17006KT 25/19 A3002 RMK A01 T02490194  RH  071%=      5-min Rain = 0
KST2 031312Z 16005KT 25/20 A3003 RMK A01 T02500195  RH  071%=      5-min Rain = 0
KST2 031313Z 16005KT 25/20 A3003 RMK A01 T02510197  RH  072%=      5-min Rain = 0
KST2 031314Z 17006KT 25/20 A3003 RMK A01 T02520195  RH  071%=      5-min Rain = 0
KST2 031315Z 17006KT 25/20 A3003 RMK A01 T02520195  RH  070%=      5-min Rain = 0
KST2 031316Z 17005KT 25/20 A3003 RMK A01 T02530195  RH  070%=      5-min Rain = 0
KST2 031317Z 17005KT 25/20 A3003 RMK A01 T02530195  RH  070%=      5-min Rain = 0
KST2 031318Z 17006KT 25/19 A3003 RMK A01 T02540194  RH  070%=      5-min Rain = 0
KST2 031319Z 17006KT 25/19 A3003 RMK A01 T02540194  RH  069%=      5-min Rain = 0
KST2 031320Z 17005KT 26/20 A3003 RMK A01 T02550196  RH  070%=      5-min Rain = 0
KST2 031321Z 16005KT 26/20 A3003 RMK A01 T02570198  RH  070%=      5-min Rain = 0
KST2 031322Z 17007KT 26/20 A3003 RMK A01 T02580196  RH  068%=      5-min Rain = 0
KST2 031323Z 17007KT 26/19 A3003 RMK A01 T02580194  RH  068%=      5-min Rain = 0
KST2 031324Z 17007KT 26/20 A3003 RMK A01 T02580195  RH  068%=      5-min Rain = 0
KST2 031325Z 17007KT 26/20 A3003 RMK A01 T02580195  RH  068%=      5-min Rain = 0
KST2 031326Z 17007KT 26/20 A3003 RMK A01 T02580195  RH  068%=      5-min Rain = 0
KST2 031327Z 17007KT 26/20 A3003 RMK A01 T02580195  RH  068%=      5-min Rain = 0
KST2 031328Z 17008KT 26/20 A3003 RMK A01 T02580195  RH  068%=      5-min Rain = 0
KST2 031329Z 17007KT 26/20 A3003 RMK A01 T02590195  RH  068%=      5-min Rain = 0
KST2 031330Z 17008KT 26/20 A3003 RMK A01 T02590196  RH  068%=      5-min Rain = 0
KST2 031331Z 17007KT 26/20 A3003 RMK A01 T02590195  RH  067%=      5-min Rain = 0
KST2 031332Z 17006KT 26/20 A3003 RMK A01 T02600195  RH  068%=      5-min Rain = 0
KST2 031333Z 17007KT 26/20 A3003 RMK A01 T02600196  RH  067%=      5-min Rain = 0
KST2 031334Z 17007KT 26/20 A3003 RMK A01 T02610196  RH  067%=      5-min Rain = 0
KST2 031335Z 17007KT 26/20 A3003 RMK A01 T02620196  RH  067%=      5-min Rain = 0
KST2 031336Z 18007KT 26/20 A3003 RMK A01 T02620197  RH  067%=      5-min Rain = 0
KST2 031337Z 17007KT 26/20 A3003 RMK A01 T02630197  RH  067%=      5-min Rain = 0
KST2 031338Z 18006KT 26/20 A3004 RMK A01 T02640198  RH  067%=      5-min Rain = 0
KST2 031339Z 18006KT 27/20 A3004 RMK A01 T02650199  RH  067%=      5-min Rain = 0
KST2 031340Z 18006KT 27/20 A3004 RMK A01 T02650197  RH  066%=      5-min Rain = 0
KST2 031341Z 18006KT 27/20 A3004 RMK A01 T02660197  RH  066%=      5-min Rain = 0
KST2 031342Z 18006KT 27/20 A3004 RMK A01 T02660198  RH  066%=      5-min Rain = 0
KST2 031343Z 19006KT 27/20 A3004 RMK A01 T02660198  RH  066%=      5-min Rain = 0
KST2 031344Z 18006KT 27/20 A3004 RMK A01 T02660197  RH  066%=      5-min Rain = 0
KST2 031345Z 19005KT 27/20 A3004 RMK A01 T02670198  RH  066%=      5-min Rain = 0
KST2 031346Z 18005KT 27/20 A3004 RMK A01 T02670199  RH  066%=      5-min Rain = 0
KST2 031347Z 19004KT 27/20 A3004 RMK A01 T02680198  RH  065%=      5-min Rain = 0
KST2 031348Z 19006KT 27/20 A3004 RMK A01 T02690200  RH  066%=      5-min Rain = 0
KST2 031349Z 21006KT 27/20 A3004 RMK A01 T02700200  RH  065%=      5-min Rain = 0
KST2 031350Z 20007KT 27/20 A3004 RMK A01 T02720200  RH  065%=      5-min Rain = 0
KST2 031351Z 21007KT 27/20 A3004 RMK A01 T02720200  RH  065%=      5-min Rain = 0
KST2 031352Z 21007KT 27/20 A3004 RMK A01 T02720200  RH  065%=      5-min Rain = 0
KST2 031353Z 21006KT 27/20 A3004 RMK A01 T02730201  RH  064%=      5-min Rain = 0
KST2 031354Z 19005KT 27/20 A3004 RMK A01 T02740201  RH  064%=      5-min Rain = 0
KST2 031355Z 21005KT 28/20 A3004 RMK A01 T02750201  RH  064%=      5-min Rain = 0
KST2 031356Z 21005KT 28/20 A3004 RMK A01 T02760201  RH  064%=      5-min Rain = 0
KST2 031357Z 20005KT 28/20 A3004 RMK A01 T02760202  RH  064%=      5-min Rain = 0
KST2 031358Z 20006KT 28/20 A3004 RMK A01 T02760202  RH  064%=      5-min Rain = 0
KST2 031359Z 20006KT 28/20 A3004 RMK A01 T02760201  RH  064%=      5-min Rain = 0
KST2 031400Z 20007KT 28/20 A3004 RMK A01 T02770202  RH  064%=      5-min Rain = 0
KST2 031401Z 20007KT 28/20 A3004 RMK A01 T02770202  RH  064%=      5-min Rain = 0
KST2 031402Z 20007KT 28/20 A3004 RMK A01 T02770202  RH  064%=      5-min Rain = 0
KST2 031403Z 21006KT 28/20 A3004 RMK A01 T02770201  RH  064%=      5-min Rain = 0
KST2 031404Z 20007KT 28/20 A3004 RMK A01 T02770202  RH  064%=      5-min Rain = 0
KST2 031405Z 20006KT 28/20 A3004 RMK A01 T02780203  RH  064%=      5-min Rain = 0
KST2 031406Z 19006KT 28/20 A3004 RMK A01 T02790202  RH  063%=      5-min Rain = 0
KST2 031407Z 20005KT 28/20 A3004 RMK A01 T02800204  RH  063%=      5-min Rain = 0
KST2 031408Z 19006KT 28/20 A3004 RMK A01 T02790203  RH  063%=      5-min Rain = 0
KST2 031409Z 20007KT 28/20 A3004 RMK A01 T02790203  RH  063%=      5-min Rain = 0
KST2 031410Z 20007KT 28/20 A3004 RMK A01 T02790203  RH  063%=      5-min Rain = 0
KST2 031411Z 21005KT 28/20 A3004 RMK A01 T02780203  RH  064%=      5-min Rain = 0
KST2 031412Z 19006KT 28/20 A3004 RMK A01 T02780203  RH  064%=      5-min Rain = 0
KST2 031413Z 20008KT 28/21 A3004 RMK A01 T02790205  RH  064%=      5-min Rain = 0
KST2 031414Z 20008KT 28/20 A3004 RMK A01 T02800202  RH  063%=      5-min Rain = 0
KST2 031415Z 20007KT 28/20 A3004 RMK A01 T02800203  RH  063%=      5-min Rain = 0
KST2 031416Z 21007KT 28/20 A3004 RMK A01 T02800203  RH  063%=      5-min Rain = 0
KST2 031417Z 20007KT 28/20 A3004 RMK A01 T02790204  RH  064%=      5-min Rain = 0
KST2 031418Z 21007KT 28/20 A3004 RMK A01 T02790203  RH  064%=      5-min Rain = 0
KST2 031419Z 21006KT 28/21 A3004 RMK A01 T02790205  RH  064%=      5-min Rain = 0
KST2 031420Z 21006KT 28/21 A3004 RMK A01 T02790205  RH  064%=      5-min Rain = 0
KST2 031421Z 21006KT 28/21 A3004 RMK A01 T02790205  RH  064%=      5-min Rain = 0
KST2 031422Z 21006KT 28/21 A3004 RMK A01 T02790205  RH  064%=      5-min Rain = 0
KST2 031423Z 20006KT 28/21 A3004 RMK A01 T02790205  RH  064%=      5-min Rain = 0
KST2 031424Z 21006KT 28/21 A3004 RMK A01 T02790206  RH  064%=      5-min Rain = 0
KST2 031425Z 20007KT 28/21 A3004 RMK A01 T02800205  RH  063%=      5-min Rain = 0
KST2 031426Z 20006KT 28/21 A3004 RMK A01 T02800205  RH  063%=      5-min Rain = 0
KST2 031427Z 21007KT 28/21 A3004 RMK A01 T02810205  RH  064%=      5-min Rain = 0
KST2 031428Z 20006KT 28/21 A3004 RMK A01 T02820206  RH  063%=      5-min Rain = 0
KST2 031429Z 20006KT 28/21 A3004 RMK A01 T02830206  RH  063%=      5-min Rain = 0
KST2 031430Z 20006KT 28/20 A3004 RMK A01 T02830204  RH  062%=      5-min Rain = 0
KST2 031431Z 21005KT 28/21 A3004 RMK A01 T02830206  RH  063%=      5-min Rain = 0
KST2 031432Z 21006KT 28/21 A3004 RMK A01 T02840208  RH  063%=      5-min Rain = 0
KST2 031433Z 21006KT 29/21 A3004 RMK A01 T02860207  RH  062%=      5-min Rain = 0
KST2 031434Z 20005KT 29/21 A3004 RMK A01 T02860206  RH  062%=      5-min Rain = 0
KST2 031435Z 22007KT 29/21 A3004 RMK A01 T02870209  RH  063%=      5-min Rain = 0
KST2 031436Z 22006KT 29/21 A3004 RMK A01 T02870207  RH  062%=      5-min Rain = 0
KST2 031437Z 23004KT 29/21 A3004 RMK A01 T02880208  RH  062%=      5-min Rain = 0
KST2 031438Z 24004KT 29/21 A3004 RMK A01 T02900209  RH  062%=      5-min Rain = 0
KST2 031439Z 25005KT 29/21 A3004 RMK A01 T02910208  RH  061%=      5-min Rain = 0
KST2 031440Z 24004KT 29/21 A3004 RMK A01 T02910208  RH  061%=      5-min Rain = 0
KST2 031441Z 23004KT 29/21 A3004 RMK A01 T02920209  RH  061%=      5-min Rain = 0
KST2 031442Z 23005KT 29/21 A3004 RMK A01 T02930210  RH  061%=      5-min Rain = 0
KST2 031443Z 24006KT 29/21 A3004 RMK A01 T02930207  RH  060%=      5-min Rain = 0
KST2 031444Z 23005KT 29/21 A3004 RMK A01 T02940208  RH  060%=      5-min Rain = 0
KST2 031445Z 21004KT 30/21 A3004 RMK A01 T02950209  RH  060%=      5-min Rain = 0
KST2 031446Z 21005KT 30/21 A3004 RMK A01 T02960209  RH  060%=      5-min Rain = 0
KST2 031447Z 22008KT 30/21 A3004 RMK A01 T02970211  RH  060%=      5-min Rain = 0
KST2 031448Z 21009KT 30/21 A3004 RMK A01 T03000208  RH  058%=      5-min Rain = 0
KST2 031449Z 23008KT 30/21 A3004 RMK A01 T03010209  RH  058%=      5-min Rain = 0
KST2 031450Z 23010KT 30/21 A3004 RMK A01 T03020207  RH  057%=      5-min Rain = 0
KST2 031451Z 22007KT 30/21 A3004 RMK A01 T03020207  RH  057%=      5-min Rain = 0
KST2 031452Z 21008KT 30/21 A3004 RMK A01 T03020208  RH  057%=      5-min Rain = 0
KST2 031453Z 21007KT 30/21 A3004 RMK A01 T03020210  RH  058%=      5-min Rain = 0
KST2 031454Z 23010KT 30/21 A3004 RMK A01 T03030210  RH  057%=      5-min Rain = 0
KST2 031455Z 22009KT 30/21 A3005 RMK A01 T03040208  RH  057%=      5-min Rain = 0
KST2 031456Z 21009KT 30/21 A3005 RMK A01 T03040208  RH  057%=      5-min Rain = 0
KST2 031457Z 21008KT 30/21 A3005 RMK A01 T03030210  RH  057%=      5-min Rain = 0
KST2 031458Z 20009KT 30/21 A3005 RMK A01 T03030209  RH  057%=      5-min Rain = 0
KST2 031459Z 21011KT 30/21 A3004 RMK A01 T03040207  RH  056%=      5-min Rain = 0
KST2 031500Z 21010KT 30/21 A3005 RMK A01 T03040207  RH  056%=      5-min Rain = 0
KST2 031501Z 21009KT 30/21 A3005 RMK A01 T03030209  RH  057%=      5-min Rain = 0
KST2 031502Z 21010KT 30/21 A3005 RMK A01 T03030208  RH  057%=      5-min Rain = 0
KST2 031503Z 22009KT 30/21 A3005 RMK A01 T03040210  RH  057%=      5-min Rain = 0
KST2 031504Z 22008KT 31/21 A3005 RMK A01 T03050209  RH  057%=      5-min Rain = 0
KST2 031505Z 22007KT 31/21 A3005 RMK A01 T03060209  RH  056%=      5-min Rain = 0
KST2 031506Z 22007KT 31/21 A3005 RMK A01 T03060209  RH  056%=      5-min Rain = 0
KST2 031507Z 21006KT 31/21 A3005 RMK A01 T03060210  RH  057%=      5-min Rain = 0
KST2 031508Z 21007KT 31/21 A3005 RMK A01 T03070208  RH  056%=      5-min Rain = 0
KST2 031509Z 21006KT 31/21 A3005 RMK A01 T03060211  RH  057%=      5-min Rain = 0
KST2 031510Z 19009KT 31/21 A3005 RMK A01 T03060210  RH  056%=      5-min Rain = 0
KST2 031511Z 19007KT 31/21 A3005 RMK A01 T03060209  RH  056%=      5-min Rain = 0
KST2 031512Z 21004KT 31/21 A3005 RMK A01 T03060211  RH  057%=      5-min Rain = 0
KST2 031513Z 24006KT 31/21 A3005 RMK A01 T03070213  RH  057%=      5-min Rain = 0
KST2 031514Z 23008KT 31/21 A3005 RMK A01 T03090212  RH  056%=      5-min Rain = 0
KST2 031515Z 23008KT 31/21 A3005 RMK A01 T03100209  RH  055%=      5-min Rain = 0
KST2 031516Z 23006KT 31/21 A3005 RMK A01 T03100210  RH  055%=      5-min Rain = 0
KST2 031517Z 24005KT 31/21 A3005 RMK A01 T03100210  RH  055%=      5-min Rain = 0
KST2 031518Z 23004KT 31/21 A3005 RMK A01 T03090209  RH  055%=      5-min Rain = 0
KST2 031519Z 19003KT 31/21 A3005 RMK A01 T03090210  RH  056%=      5-min Rain = 0
KST2 031520Z 24006KT 31/21 A3005 RMK A01 T03090209  RH  055%=      5-min Rain = 0
KST2 031521Z 24006KT 31/21 A3005 RMK A01 T03110212  RH  056%=      5-min Rain = 0
KST2 031522Z 22008KT 31/21 A3005 RMK A01 T03120212  RH  055%=      5-min Rain = 0
KST2 031523Z 22009KT 31/21 A3005 RMK A01 T03130210  RH  054%=      5-min Rain = 0
KST2 031524Z 23007KT 31/21 A3005 RMK A01 T03130209  RH  054%=      5-min Rain = 0
KST2 031525Z 23006KT 31/21 A3005 RMK A01 T03120209  RH  054%=      5-min Rain = 0
KST2 031526Z 22006KT 31/21 A3004 RMK A01 T03110210  RH  055%=      5-min Rain = 0
KST2 031527Z 21006KT 31/21 A3004 RMK A01 T03110209  RH  055%=      5-min Rain = 0
KST2 031528Z 21007KT 31/21 A3004 RMK A01 T03110208  RH  054%=      5-min Rain = 0
KST2 031529Z 21007KT 31/21 A3004 RMK A01 T03110208  RH  054%=      5-min Rain = 0
KST2 031530Z 22007KT 31/21 A3004 RMK A01 T03110208  RH  054%=      5-min Rain = 0
KST2 031531Z 22007KT 31/21 A3004 RMK A01 T03110208  RH  054%=      5-min Rain = 0
KST2 031532Z 21005KT 31/21 A3004 RMK A01 T03110209  RH  055%=      5-min Rain = 0
KST2 031533Z 24007KT 31/21 A3004 RMK A01 T03120209  RH  055%=      5-min Rain = 0
KST2 031534Z 25006KT 31/21 A3004 RMK A01 T03130210  RH  054%=      5-min Rain = 0
KST2 031535Z 23006KT 32/21 A3004 RMK A01 T03150213  RH  055%=      5-min Rain = 0
KST2 031536Z 22007KT 32/21 A3004 RMK A01 T03160210  RH  054%=      5-min Rain = 0
KST2 031537Z 23006KT 32/21 A3004 RMK A01 T03160210  RH  053%=      5-min Rain = 0
KST2 031538Z 22005KT 32/21 A3004 RMK A01 T03150208  RH  053%=      5-min Rain = 0
KST2 031539Z 20008KT 31/21 A3004 RMK A01 T03140211  RH  054%=      5-min Rain = 0
KST2 031540Z 21010KT 32/21 A3004 RMK A01 T03150211  RH  054%=      5-min Rain = 0
KST2 031541Z 21007KT 32/21 A3004 RMK A01 T03150209  RH  053%=      5-min Rain = 0
KST2 031542Z 23006KT 31/21 A3004 RMK A01 T03140212  RH  055%=      5-min Rain = 0
KST2 031543Z 24007KT 32/21 A3004 RMK A01 T03160210  RH  053%=      5-min Rain = 0
KST2 031544Z 23006KT 32/21 A3004 RMK A01 T03170209  RH  053%=      5-min Rain = 0
KST2 031545Z 24006KT 32/21 A3004 RMK A01 T03170208  RH  052%=      5-min Rain = 0
KST2 031546Z 23005G10KT 32/21 A3004 RMK A01 T03170210  RH  053%=      5-min Rain = 0
KST2 031547Z 20009KT 32/21 A3004 RMK A01 T03180211  RH  053%=      5-min Rain = 0
KST2 031548Z 20008KT 32/21 A3004 RMK A01 T03180210  RH  053%=      5-min Rain = 0
KST2 031549Z 20007KT 32/21 A3004 RMK A01 T03170210  RH  053%=      5-min Rain = 0
KST2 031550Z 22007KT 32/21 A3004 RMK A01 T03160211  RH  054%=      5-min Rain = 0
KST2 031551Z 23005KT 32/21 A3004 RMK A01 T03160212  RH  054%=      5-min Rain = 0
KST2 031552Z 22006KT 32/21 A3004 RMK A01 T03170211  RH  054%=      5-min Rain = 0
KST2 031553Z 21007KT 32/21 A3004 RMK A01 T03190212  RH  053%=      5-min Rain = 0
KST2 031554Z 20008KT 32/21 A3004 RMK A01 T03200211  RH  053%=      5-min Rain = 0
KST2 031555Z 19006KT 32/21 A3003 RMK A01 T03200209  RH  052%=      5-min Rain = 0
KST2 031556Z 20006KT 32/21 A3004 RMK A01 T03190210  RH  052%=      5-min Rain = 0
KST2 031557Z 21007KT 32/21 A3004 RMK A01 T03180211  RH  053%=      5-min Rain = 0
KST2 031558Z 21004KT 32/21 A3004 RMK A01 T03180209  RH  053%=      5-min Rain = 0
KST2 031559Z 24004KT 32/21 A3003 RMK A01 T03170209  RH  053%=      5-min Rain = 0
KST2 031600Z 21005KT 32/21 A3003 RMK A01 T03170211  RH  054%=      5-min Rain = 0
KST2 031601Z 19007KT 32/21 A3003 RMK A01 T03180212  RH  053%=      5-min Rain = 0
KST2 031602Z 18006KT 32/21 A3004 RMK A01 T03190210  RH  052%=      5-min Rain = 0
KST2 031603Z 21007KT 32/21 A3004 RMK A01 T03210213  RH  053%=      5-min Rain = 0
KST2 031604Z 22005KT 32/21 A3004 RMK A01 T03220213  RH  052%=      5-min Rain = 0
KST2 031605Z 19005KT 32/22 A3004 RMK A01 T03220215  RH  053%=      5-min Rain = 0
KST2 031606Z 20008KT 32/21 A3004 RMK A01 T03230214  RH  053%=      5-min Rain = 0
KST2 031607Z 21008KT 32/21 A3004 RMK A01 T03230209  RH  051%=      5-min Rain = 0
KST2 031608Z 21007KT 32/21 A3004 RMK A01 T03230210  RH  051%=      5-min Rain = 0
KST2 031609Z 19006KT 32/21 A3004 RMK A01 T03220209  RH  051%=      5-min Rain = 0
KST2 031610Z 22007KT 32/21 A3004 RMK A01 T03220213  RH  052%=      5-min Rain = 0
KST2 031611Z 22004KT 32/21 A3004 RMK A01 T03230211  RH  052%=      5-min Rain = 0
KST2 031612Z 22005KT 32/21 A3004 RMK A01 T03240214  RH  052%=      5-min Rain = 0
KST2 031613Z 21004KT 33/21 A3003 RMK A01 T03250211  RH  051%=      5-min Rain = 0
KST2 031614Z 21006KT 33/21 A3003 RMK A01 T03250214  RH  052%=      5-min Rain = 0
KST2 031615Z 21005KT 33/22 A3003 RMK A01 T03250217  RH  053%=      5-min Rain = 0
KST2 031616Z 21009KT 33/22 A3003 RMK A01 T03260216  RH  052%=      5-min Rain = 0
KST2 031617Z 21007KT 33/21 A3003 RMK A01 T03280210  RH  050%=      5-min Rain = 0
KST2 031618Z 21005KT 33/21 A3003 RMK A01 T03270209  RH  050%=      5-min Rain = 0
KST2 031619Z 22004KT 33/21 A3003 RMK A01 T03260212  RH  051%=      5-min Rain = 0
KST2 031620Z 21005KT 33/21 A3003 RMK A01 T03260209  RH  050%=      5-min Rain = 0
KST2 031621Z 22008KT 33/21 A3003 RMK A01 T03260211  RH  051%=      5-min Rain = 0
KST2 031622Z 21006KT 33/21 A3004 RMK A01 T03270213  RH  051%=      5-min Rain = 0
KST2 031623Z 21008KT 33/21 A3003 RMK A01 T03290211  RH  050%=      5-min Rain = 0
KST2 031624Z 19008KT 33/21 A3003 RMK A01 T03290211  RH  050%=      5-min Rain = 0
KST2 031625Z 20008KT 33/21 A3003 RMK A01 T03290209  RH  050%=      5-min Rain = 0
KST2 031626Z 21007KT 33/21 A3003 RMK A01 T03270212  RH  051%=      5-min Rain = 0
KST2 031627Z 21006KT 33/21 A3003 RMK A01 T03270211  RH  051%=      5-min Rain = 0
KST2 031628Z 21005KT 33/21 A3003 RMK A01 T03270212  RH  051%=      5-min Rain = 0
KST2 031629Z 19005KT 33/21 A3003 RMK A01 T03260210  RH  050%=      5-min Rain = 0
KST2 031630Z 20004KT 32/21 A3003 RMK A01 T03240209  RH  051%=      5-min Rain = 0
KST2 031631Z 21003KT 32/21 A3003 RMK A01 T03240210  RH  051%=      5-min Rain = 0
KST2 031632Z 22002KT 32/21 A3003 RMK A01 T03240210  RH  051%=      5-min Rain = 0
KST2 031633Z 21006KT 33/21 A3003 RMK A01 T03260212  RH  051%=      5-min Rain = 0
KST2 031634Z 21008KT 33/21 A3003 RMK A01 T03280212  RH  050%=      5-min Rain = 0
KST2 031635Z 21006KT 33/21 A3003 RMK A01 T03300209  RH  049%=      5-min Rain = 0
KST2 031636Z 21006KT 33/21 A3003 RMK A01 T03290210  RH  050%=      5-min Rain = 0
KST2 031637Z 19004KT 33/21 A3003 RMK A01 T03290207  RH  049%=      5-min Rain = 0
KST2 031638Z 20006KT 33/21 A3003 RMK A01 T03280209  RH  050%=      5-min Rain = 0
KST2 031639Z 18006KT 33/20 A3003 RMK A01 T03280204  RH  048%=      5-min Rain = 0
KST2 031640Z 18004KT 33/21 A3003 RMK A01 T03280208  RH  049%=      5-min Rain = 0
KST2 031641Z 21004KT 33/21 A3003 RMK A01 T03290208  RH  049%=      5-min Rain = 0
KST2 031642Z 22008KT 33/21 A3003 RMK A01 T03300209  RH  049%=      5-min Rain = 0
KST2 031643Z 23006KT 33/21 A3003 RMK A01 T03310205  RH  047%=      5-min Rain = 0
KST2 031644Z 21005KT 33/21 A3003 RMK A01 T03310209  RH  049%=      5-min Rain = 0
KST2 031645Z 21005KT 33/21 A3003 RMK A01 T03300207  RH  048%=      5-min Rain = 0
KST2 031646Z 22003KT 33/21 A3003 RMK A01 T03310208  RH  049%=      5-min Rain = 0
KST2 031647Z 21003KT 33/21 A3003 RMK A01 T03310210  RH  049%=      5-min Rain = 0
KST2 031648Z 22003KT 33/21 A3003 RMK A01 T03330211  RH  049%=      5-min Rain = 0
KST2 031649Z 24004KT 34/21 A3003 RMK A01 T03350214  RH  049%=      5-min Rain = 0
KST2 031650Z 23006KT 34/21 A3003 RMK A01 T03370209  RH  047%=      5-min Rain = 0
KST2 031651Z 22006KT 34/22 A3003 RMK A01 T03380216  RH  049%=      5-min Rain = 0
KST2 031652Z 22006KT 34/21 A3003 RMK A01 T03390213  RH  048%=      5-min Rain = 0
KST2 031653Z 24004KT 34/21 A3003 RMK A01 T03390211  RH  047%=      5-min Rain = 0
KST2 031654Z 24002KT 34/21 A3003 RMK A01 T03380213  RH  048%=      5-min Rain = 0
KST2 031655Z 19002G8KT 34/21 A3003 RMK A01 T03380210  RH  047%=      5-min Rain = 0
KST2 031656Z 19006KT 34/21 A3003 RMK A01 T03390208  RH  046%=      5-min Rain = 0
KST2 031657Z 19008KT 34/21 A3003 RMK A01 T03390211  RH  047%=      5-min Rain = 0
KST2 031658Z 21007KT 34/21 A3003 RMK A01 T03390210  RH  047%=      5-min Rain = 0
KST2 031659Z 21005KT 34/21 A3003 RMK A01 T03390209  RH  047%=      5-min Rain = 0
KST2 031700Z 22003KT 34/21 A3003 RMK A01 T03370208  RH  047%=      5-min Rain = 0
KST2 031701Z 22001KT 34/21 A3003 RMK A01 T03360206  RH  046%=      5-min Rain = 0
KST2 031702Z 21001KT 34/21 A3003 RMK A01 T03360206  RH  047%=      5-min Rain = 0
KST2 031703Z 19006KT 34/21 A3003 RMK A01 T03360205  RH  046%=      5-min Rain = 0
KST2 031704Z 19003KT 34/20 A3003 RMK A01 T03360204  RH  046%=      5-min Rain = 0
KST2 031705Z 20005KT 34/21 A3003 RMK A01 T03360205  RH  047%=      5-min Rain = 0
KST2 031706Z 19005KT 34/20 A3003 RMK A01 T03360204  RH  046%=      5-min Rain = 0
KST2 031707Z 18003KT 34/20 A3003 RMK A01 T03350202  RH  046%=      5-min Rain = 0
KST2 031708Z 18002KT 33/20 A3003 RMK A01 T03330203  RH  046%=      5-min Rain = 0
KST2 031709Z 17002KT 33/20 A3003 RMK A01 T03340203  RH  046%=      5-min Rain = 0
KST2 031710Z 18004KT 34/20 A3003 RMK A01 T03360202  RH  046%=      5-min Rain = 0
KST2 031711Z 16006KT 34/21 A3003 RMK A01 T03370206  RH  046%=      5-min Rain = 0
KST2 031712Z 16005KT 34/21 A3003 RMK A01 T03390205  RH  046%=      5-min Rain = 0
KST2 031713Z 17006KT 34/21 A3003 RMK A01 T03400205  RH  045%=      5-min Rain = 0
KST2 031714Z 16004KT 34/21 A3003 RMK A01 T03410206  RH  045%=      5-min Rain = 0
KST2 031715Z 19005KT 34/21 A3003 RMK A01 T03420208  RH  046%=      5-min Rain = 0
KST2 031716Z 19005KT 34/20 A3003 RMK A01 T03430202  RH  044%=      5-min Rain = 0
KST2 031717Z 19003KT 34/20 A3003 RMK A01 T03410202  RH  044%=      5-min Rain = 0
KST2 031718Z 17003KT 34/20 A3003 RMK A01 T03400203  RH  045%=      5-min Rain = 0
KST2 031719Z 19007KT 34/20 A3003 RMK A01 T03400203  RH  045%=      5-min Rain = 0
KST2 031720Z 20008KT 34/21 A3002 RMK A01 T03410205  RH  045%=      5-min Rain = 0
KST2 031721Z 22007KT 34/21 A3003 RMK A01 T03410207  RH  045%=      5-min Rain = 0
KST2 031722Z 22004KT 34/20 A3003 RMK A01 T03410204  RH  045%=      5-min Rain = 0
KST2 031723Z 18004KT 34/20 A3003 RMK A01 T03410200  RH  044%=      5-min Rain = 0
KST2 031724Z 20005KT 34/20 A3003 RMK A01 T03400202  RH  044%=      5-min Rain = 0
KST2 031725Z 22005KT 34/21 A3003 RMK A01 T03400205  RH  045%=      5-min Rain = 0
KST2 031726Z 23006KT 34/21 A3003 RMK A01 T03410205  RH  045%=      5-min Rain = 0
KST2 031727Z 25005KT 34/20 A3003 RMK A01 T03420204  RH  044%=      5-min Rain = 0
KST2 031728Z 24004KT 34/20 A3003 RMK A01 T03420201  RH  044%=      5-min Rain = 0
KST2 031729Z 24003KT 34/20 A3003 RMK A01 T03430199  RH  043%=      5-min Rain = 0
KST2 031730Z 25001KT 34/20 A3003 RMK A01 T03430196  RH  042%=      5-min Rain = 0
KST2 031731Z 22002KT 34/20 A3003 RMK A01 T03430200  RH  043%=      5-min Rain = 0
KST2 031732Z 22006KT 34/20 A3003 RMK A01 T03440197  RH  042%=      5-min Rain = 0
KST2 031733Z 23004KT 34/19 A3003 RMK A01 T03440192  RH  041%=      5-min Rain = 0
KST2 031734Z 22003KT 34/19 A3002 RMK A01 T03420193  RH  041%=      5-min Rain = 0
KST2 031735Z 23003KT 34/19 A3002 RMK A01 T03420187  RH  040%=      5-min Rain = 0
KST2 031736Z 23005KT 34/19 A3002 RMK A01 T03420187  RH  040%=      5-min Rain = 0
KST2 031737Z 24003KT 34/19 A3002 RMK A01 T03420188  RH  040%=      5-min Rain = 0
KST2 031738Z 23003KT 34/19 A3002 RMK A01 T03420188  RH  040%=      5-min Rain = 0
KST2 031739Z 21004KT 34/19 A3002 RMK A01 T03430187  RH  040%=      5-min Rain = 0
KST2 031740Z 20005KT 34/19 A3002 RMK A01 T03440185  RH  039%=      5-min Rain = 0
KST2 031741Z 20002KT 35/18 A3002 RMK A01 T03450184  RH  038%=      5-min Rain = 0
KST2 031742Z 20003KT 35/18 A3002 RMK A01 T03460184  RH  039%=      5-min Rain = 0
KST2 031743Z 20003KT 35/19 A3002 RMK A01 T03460186  RH  039%=      5-min Rain = 0
KST2 031744Z 20007KT 35/19 A3002 RMK A01 T03460188  RH  039%=      5-min Rain = 0
KST2 031745Z 19005KT 35/18 A3002 RMK A01 T03470184  RH  038%=      5-min Rain = 0
KST2 031746Z 19004KT 35/18 A3002 RMK A01 T03460182  RH  038%=      5-min Rain = 0
KST2 031747Z 19004KT 35/18 A3002 RMK A01 T03460181  RH  038%=      5-min Rain = 0
KST2 031748Z 19003KT 35/18 A3002 RMK A01 T03460180  RH  037%=      5-min Rain = 0
KST2 031749Z 21002KT 35/18 A3002 RMK A01 T03460184  RH  038%=      5-min Rain = 0
KST2 031750Z 21005KT 35/19 A3002 RMK A01 T03460186  RH  039%=      5-min Rain = 0
KST2 031751Z 21005KT 35/19 A3002 RMK A01 T03460189  RH  040%=      5-min Rain = 0
KST2 031752Z 20001KT 35/19 A3002 RMK A01 T03460188  RH  040%=      5-min Rain = 0
KST2 031753Z 00000KT 35/19 A3002 RMK A01 T03460194  RH  041%=      5-min Rain = 0
KST2 031754Z 20000KT 35/19 A3002 RMK A01 T03470190  RH  040%=      5-min Rain = 0
KST2 031755Z 20000KT 35/19 A3002 RMK A01 T03490189  RH  039%=      5-min Rain = 0
KST2 031756Z 20000KT 35/19 A3002 RMK A01 T03500186  RH  038%=      5-min Rain = 0
KST2 031757Z 21001KT 35/19 A3002 RMK A01 T03510189  RH  039%=      5-min Rain = 0
KST2 031758Z 22002KT 35/19 A3002 RMK A01 T03520186  RH  038%=      5-min Rain = 0
KST2 031759Z 24003KT 35/19 A3002 RMK A01 T03520187  RH  038%=      5-min Rain = 0
KST2 031800Z 26003KT 35/19 A3002 RMK A01 T03520191  RH  039%=      5-min Rain = 0
KST2 031801Z 24001KT 35/19 A3002 RMK A01 T03520186  RH  038%=      5-min Rain = 0
KST2 031802Z 24003KT 35/19 A3002 RMK A01 T03530189  RH  038%=      5-min Rain = 0
KST2 031803Z 27004KT 35/19 A3002 RMK A01 T03530187  RH  038%=      5-min Rain = 0
KST2 031804Z 29002KT 35/19 A3001 RMK A01 T03520187  RH  038%=      5-min Rain = 0
KST2 031805Z 30001KT 35/19 A3002 RMK A01 T03500188  RH  038%=      5-min Rain = 0
KST2 031806Z 00000KT 35/19 A3002 RMK A01 T03500190  RH  039%=      5-min Rain = 0
KST2 031807Z 20002KT 35/19 A3002 RMK A01 T03520188  RH  038%=      5-min Rain = 0
KST2 031808Z 18003KT 35/19 A3002 RMK A01 T03520188  RH  038%=      5-min Rain = 0
KST2 031809Z 15004KT 35/19 A3001 RMK A01 T03520186  RH  038%=      5-min Rain = 0
KST2 031810Z 15007KT 35/18 A3001 RMK A01 T03520178  RH  036%=      5-min Rain = 0
KST2 031811Z 14007KT 35/18 A3001 RMK A01 T03530177  RH  035%=      5-min Rain = 0
KST2 031812Z 16005KT 35/18 A3001 RMK A01 T03530177  RH  035%=      5-min Rain = 0
KST2 031813Z 12006KT 35/18 A3001 RMK A01 T03530177  RH  035%=      5-min Rain = 0
KST2 031814Z 09006KT 35/18 A3001 RMK A01 T03530179  RH  036%=      5-min Rain = 0
KST2 031815Z 09006KT 35/18 A3001 RMK A01 T03530175  RH  035%=      5-min Rain = 0
KST2 031816Z 08005KT 35/18 A3001 RMK A01 T03520176  RH  035%=      5-min Rain = 0
KST2 031817Z 09004KT 35/18 A3001 RMK A01 T03510179  RH  036%=      5-min Rain = 0
KST2 031818Z 08004KT 35/18 A3001 RMK A01 T03530175  RH  035%=      5-min Rain = 0
KST2 031819Z 07003KT 35/17 A3001 RMK A01 T03520173  RH  035%=      5-min Rain = 0
KST2 031820Z 06001KT 35/18 A3001 RMK A01 T03510176  RH  035%=      5-min Rain = 0
KST2 031821Z 05001KT 35/18 A3001 RMK A01 T03510177  RH  036%=      5-min Rain = 0
KST2 031822Z 03002KT 35/18 A3001 RMK A01 T03520178  RH  036%=      5-min Rain = 0
KST2 031823Z 06002KT 35/18 A3001 RMK A01 T03520178  RH  036%=      5-min Rain = 0
KST2 031824Z 12004KT 35/18 A3001 RMK A01 T03520182  RH  037%=      5-min Rain = 0
KST2 031825Z 19005KT 36/18 A3001 RMK A01 T03550180  RH  036%=      5-min Rain = 0
KST2 031826Z 20005KT 36/18 A3001 RMK A01 T03550182  RH  036%=      5-min Rain = 0
KST2 031827Z 22005KT 35/18 A3001 RMK A01 T03540182  RH  036%=      5-min Rain = 0
KST2 031828Z 21005KT 35/19 A3001 RMK A01 T03540186  RH  037%=      5-min Rain = 0
KST2 031829Z 13006KT 36/19 A3001 RMK A01 T03560188  RH  037%=      5-min Rain = 0
KST2 031830Z 10004KT 36/18 A3001 RMK A01 T03580184  RH  036%=      5-min Rain = 0
KST2 031831Z 13005KT 36/19 A3001 RMK A01 T03580185  RH  036%=      5-min Rain = 0
KST2 031832Z 12008KT 36/19 A3001 RMK A01 T03610187  RH  036%=      5-min Rain = 0
KST2 031833Z 11010KT 36/19 A3001 RMK A01 T03640185  RH  035%=      5-min Rain = 0
KST2 031834Z 13009KT 36/18 A3001 RMK A01 T03620182  RH  035%=      5-min Rain = 0
KST2 031835Z 13006KT 36/18 A3001 RMK A01 T03610181  RH  035%=      5-min Rain = 0
KST2 031836Z 12006KT 36/18 A30 RMK A01 T03580184  RH  036%=      5-min Rain = 0
KST2 031837Z 10009KT 36/18 A30 RMK A01 T03590180  RH  035%=      5-min Rain = 0
KST2 031838Z 11007KT 36/17 A3001 RMK A01 T03590174  RH  034%=      5-min Rain = 0
KST2 031839Z 11004KT 36/17 A30 RMK A01 T03560172  RH  034%=      5-min Rain = 0
KST2 031840Z 09002KT 35/17 A30 RMK A01 T03540173  RH  034%=      5-min Rain = 0
KST2 031841Z 09003KT 35/18 A30 RMK A01 T03540178  RH  035%=      5-min Rain = 0
KST2 031842Z 08005KT 35/18 A30 RMK A01 T03540179  RH  036%=      5-min Rain = 0
KST2 031843Z 08003KT 35/18 A30 RMK A01 T03540178  RH  035%=      5-min Rain = 0
KST2 031844Z 08003KT 35/18 A30 RMK A01 T03540181  RH  036%=      5-min Rain = 0
KST2 031845Z 07005KT 35/18 A30 RMK A01 T03540180  RH  036%=      5-min Rain = 0
KST2 031846Z 12007KT 36/18 A30 RMK A01 T03550179  RH  035%=      5-min Rain = 0
KST2 031847Z 12008KT 36/17 A30 RMK A01 T03580174  RH  034%=      5-min Rain = 0
KST2 031848Z 13008KT 36/17 A30 RMK A01 T03580174  RH  034%=      5-min Rain = 0
KST2 031849Z 13008KT 36/17 A30 RMK A01 T03590173  RH  033%=      5-min Rain = 0
KST2 031850Z 12009KT 36/18 A30 RMK A01 T03610176  RH  034%=      5-min Rain = 0
KST2 031851Z 10007KT 36/17 A30 RMK A01 T03630174  RH  033%=      5-min Rain = 0
KST2 031852Z 12007KT 36/18 A30 RMK A01 T03630178  RH  034%=      5-min Rain = 0
KST2 031853Z 12009KT 36/18 A30 RMK A01 T03640180  RH  034%=      5-min Rain = 0
KST2 031854Z 14008KT 37/18 A30 RMK A01 T03650176  RH  033%=      5-min Rain = 0
KST2 031855Z 14009KT 36/18 A30 RMK A01 T03620175  RH  033%=      5-min Rain = 0
KST2 031856Z 13008KT 36/17 A30 RMK A01 T03610173  RH  033%=      5-min Rain = 0
KST2 031857Z 13004KT 36/17 A30 RMK A01 T03590173  RH  033%=      5-min Rain = 0
KST2 031858Z 14007G12KT 36/18 A30 RMK A01 T03580176  RH  034%=      5-min Rain = 0
KST2 031859Z 14007KT 36/17 A30 RMK A01 T03600170  RH  033%=      5-min Rain = 0
KST2 031900Z 14004KT 36/17 A30 RMK A01 T03590168  RH  032%=      5-min Rain = 0
KST2 031901Z 16001KT 36/17 A30 RMK A01 T03580174  RH  034%=      5-min Rain = 0
KST2 031902Z 19001G6KT 36/18 A30 RMK A01 T03570176  RH  034%=      5-min Rain = 0
KST2 031903Z 12006KT 36/18 A30 RMK A01 T03580179  RH  035%=      5-min Rain = 0
KST2 031904Z 13009KT 36/18 A30 RMK A01 T03590179  RH  035%=      5-min Rain = 0
KST2 031905Z 13007KT 36/18 A30 RMK A01 T03600175  RH  034%=      5-min Rain = 0
KST2 031906Z 14007KT 36/18 A30 RMK A01 T03580175  RH  034%=      5-min Rain = 0
KST2 031907Z 14007KT 36/17 A30 RMK A01 T03580174  RH  034%=      5-min Rain = 0
KST2 031908Z 13005KT 36/17 A30 RMK A01 T03570173  RH  034%=      5-min Rain = 0
KST2 031909Z 12005KT 36/17 A30 RMK A01 T03570170  RH  033%=      5-min Rain = 0
KST2 031910Z 12003KT 36/17 A30 RMK A01 T03570168  RH  033%=      5-min Rain = 0
KST2 031911Z 10003KT 36/17 A30 RMK A01 T03560170  RH  033%=      5-min Rain = 0
KST2 031912Z 10002KT 36/17 A30 RMK A01 T03560172  RH  034%=      5-min Rain = 0
KST2 031913Z 12004KT 36/17 A30 RMK A01 T03580171  RH  033%=      5-min Rain = 0
KST2 031914Z 14008KT 36/16 A30 RMK A01 T03600164  RH  032%=      5-min Rain = 0
KST2 031915Z 14010KT 36/16 A30 RMK A01 T03610156  RH  030%=      5-min Rain = 0
KST2 031916Z 13009KT 36/16 A30 RMK A01 T03610161  RH  030%=      5-min Rain = 0
KST2 031917Z 14006KT 36/16 A30 RMK A01 T03630162  RH  030%=      5-min Rain = 0
KST2 031918Z 13005KT 36/17 A30 RMK A01 T03620165  RH  031%=      5-min Rain = 0
KST2 031919Z 12009KT 36/17 A30 RMK A01 T03620167  RH  032%=      5-min Rain = 0
KST2 031920Z 10011KT 36/17 A30 RMK A01 T03640171  RH  032%=      5-min Rain = 0
KST2 031921Z 09008KT 36/16 A30 RMK A01 T03640160  RH  030%=      5-min Rain = 0
KST2 031922Z 09008KT 36/16 A30 RMK A01 T03630163  RH  031%=      5-min Rain = 0
KST2 031923Z 08009KT 36/17 A30 RMK A01 T03640165  RH  031%=      5-min Rain = 0
KST2 031924Z 09010KT 36/16 A30 RMK A01 T03640163  RH  030%=      5-min Rain = 0
KST2 031925Z 10010KT 36/17 A30 RMK A01 T03630167  RH  032%=      5-min Rain = 0
KST2 031926Z 10009KT 36/16 A30 RMK A01 T03630164  RH  031%=      5-min Rain = 0
KST2 031927Z 08007KT 36/16 A30 RMK A01 T03610162  RH  031%=      5-min Rain = 0
KST2 031928Z 10006KT 36/16 A30 RMK A01 T03600163  RH  031%=      5-min Rain = 0
KST2 031929Z 11004KT 36/17 A30 RMK A01 T03590165  RH  032%=      5-min Rain = 0
KST2 031930Z 12006KT 36/17 A30 RMK A01 T03590169  RH  033%=      5-min Rain = 0
KST2 031931Z 12008KT 36/17 A30 RMK A01 T03600172  RH  033%=      5-min Rain = 0
KST2 031932Z 11009KT 36/18 A30 RMK A01 T03610180  RH  035%=      5-min Rain = 0
KST2 031933Z 10007KT 36/18 A30 RMK A01 T03610180  RH  035%=      5-min Rain = 0
KST2 031934Z 14010KT 36/18 A30 RMK A01 T03630182  RH  035%=      5-min Rain = 0
KST2 031935Z 16009KT 36/18 A30 RMK A01 T03630181  RH  034%=      5-min Rain = 0
KST2 031936Z 16006KT 36/18 A30 RMK A01 T03610179  RH  034%=      5-min Rain = 0
KST2 031937Z 15004KT 36/18 A30 RMK A01 T03610180  RH  035%=      5-min Rain = 0
KST2 031938Z 12006G11KT 36/18 A30 RMK A01 T03610181  RH  035%=      5-min Rain = 0
KST2 031939Z 13009KT 36/18 A30 RMK A01 T03620179  RH  034%=      5-min Rain = 0
KST2 031940Z 10008KT 36/18 A30 RMK A01 T03640178  RH  034%=      5-min Rain = 0
KST2 031941Z 10005KT 36/18 A30 RMK A01 T03630178  RH  034%=      5-min Rain = 0
KST2 031942Z 14008KT 36/18 A30 RMK A01 T03630181  RH  034%=      5-min Rain = 0
KST2 031943Z 14006KT 36/18 A30 RMK A01 T03640178  RH  034%=      5-min Rain = 0
KST2 031944Z 14004KT 36/18 A30 RMK A01 T03630181  RH  034%=      5-min Rain = 0
KST2 031945Z 12007KT 36/18 A2999 RMK A01 T03640180  RH  034%=      5-min Rain = 0
KST2 031946Z 15008KT 36/18 A2999 RMK A01 T03640182  RH  034%=      5-min Rain = 0
KST2 031947Z 15010KT 37/18 A2999 RMK A01 T03670181  RH  034%=      5-min Rain = 0
KST2 031948Z 14008KT 37/18 A2999 RMK A01 T03680180  RH  033%=      5-min Rain = 0
KST2 031949Z 14009KT 37/18 A2999 RMK A01 T03670176  RH  033%=      5-min Rain = 0
KST2 031950Z 16005KT 36/17 A2999 RMK A01 T03640172  RH  032%=      5-min Rain = 0
KST2 031951Z 16005KT 36/17 A2999 RMK A01 T03620174  RH  033%=      5-min Rain = 0
KST2 031952Z 14005KT 36/17 A2999 RMK A01 T03620173  RH  033%=      5-min Rain = 0
KST2 031953Z 14008KT 36/18 A2999 RMK A01 T03630177  RH  034%=      5-min Rain = 0
KST2 031954Z 10011KT 37/17 A2999 RMK A01 T03650165  RH  031%=      5-min Rain = 0
KST2 031955Z 10010KT 36/16 A2999 RMK A01 T03630161  RH  030%=      5-min Rain = 0
KST2 031956Z 12009KT 36/16 A2999 RMK A01 T03620161  RH  031%=      5-min Rain = 0
KST2 031957Z 11009KT 36/17 A2999 RMK A01 T03610168  RH  032%=      5-min Rain = 0
KST2 031958Z 11007KT 36/17 A2999 RMK A01 T03610168  RH  032%=      5-min Rain = 0
KST2 031959Z 15008KT 36/17 A2999 RMK A01 T03640170  RH  032%=      5-min Rain = 0
KST2 032000Z 14010KT 37/17 A2999 RMK A01 T03660168  RH  031%=      5-min Rain = 0
KST2 032001Z 13008KT 37/17 A2999 RMK A01 T03650169  RH  032%=      5-min Rain = 0
KST2 032002Z 13004KT 36/17 A2999 RMK A01 T03620168  RH  032%=      5-min Rain = 0
KST2 032003Z 15003KT 36/17 A2999 RMK A01 T03600168  RH  032%=      5-min Rain = 0
KST2 032004Z 10003KT 36/17 A2999 RMK A01 T03590171  RH  033%=      5-min Rain = 0
KST2 032005Z 09005KT 36/17 A2999 RMK A01 T03600170  RH  032%=      5-min Rain = 0
KST2 032006Z 10005KT 36/17 A2999 RMK A01 T03620172  RH  033%=      5-min Rain = 0
KST2 032007Z 12010KT 36/18 A2999 RMK A01 T03630176  RH  033%=      5-min Rain = 0
KST2 032008Z 11007KT 37/17 A2999 RMK A01 T03650172  RH  032%=      5-min Rain = 0
KST2 032009Z 14009KT 36/17 A2999 RMK A01 T03640174  RH  033%=      5-min Rain = 0
KST2 032010Z 12012KT 37/17 A2999 RMK A01 T03660171  RH  032%=      5-min Rain = 0
KST2 032011Z 11010KT 37/17 A2999 RMK A01 T03650168  RH  031%=      5-min Rain = 0
KST2 032012Z 11012KT 36/17 A2999 RMK A01 T03640166  RH  031%=      5-min Rain = 0
KST2 032013Z 11012KT 37/16 A2999 RMK A01 T03650164  RH  030%=      5-min Rain = 0
KST2 032014Z 11011G16KT 37/16 A2999 RMK A01 T03660164  RH  030%=      5-min Rain = 0
KST2 032015Z 10007KT 36/16 A2999 RMK A01 T03640163  RH  030%=      5-min Rain = 0
KST2 032016Z 10006KT 36/16 A2999 RMK A01 T03620163  RH  031%=      5-min Rain = 0
KST2 032017Z 15008KT 36/17 A2999 RMK A01 T03630166  RH  031%=      5-min Rain = 0
KST2 032018Z 14009KT 37/17 A2999 RMK A01 T03650170  RH  032%=      5-min Rain = 0
KST2 032019Z 13010KT 37/17 A2999 RMK A01 T03690174  RH  032%=      5-min Rain = 0
KST2 032020Z 13009KT 37/17 A2999 RMK A01 T03700168  RH  030%=      5-min Rain = 0
KST2 032021Z 13009KT 37/17 A2999 RMK A01 T03670167  RH  031%=      5-min Rain = 0
KST2 032022Z 13004KT 36/16 A2999 RMK A01 T03630163  RH  031%=      5-min Rain = 0
KST2 032023Z 13003KT 36/17 A2998 RMK A01 T03610167  RH  032%=      5-min Rain = 0
KST2 032024Z 11002KT 36/17 A2998 RMK A01 T03620167  RH  032%=      5-min Rain = 0
KST2 032025Z 12005KT 36/17 A2998 RMK A01 T03630170  RH  032%=      5-min Rain = 0
KST2 032026Z 12004KT 36/17 A2998 RMK A01 T03630169  RH  032%=      5-min Rain = 0
KST2 032027Z 11003KT 36/17 A2998 RMK A01 T03610170  RH  033%=      5-min Rain = 0
KST2 032028Z 11005KT 36/17 A2998 RMK A01 T03600172  RH  033%=      5-min Rain = 0
KST2 032029Z 14007KT 36/17 A2998 RMK A01 T03640171  RH  032%=      5-min Rain = 0
KST2 032030Z 15011KT 37/17 A2998 RMK A01 T03670169  RH  031%=      5-min Rain = 0
KST2 032031Z 15012KT 37/17 A2998 RMK A01 T03670169  RH  031%=      5-min Rain = 0
KST2 032032Z 16010KT 37/17 A2998 RMK A01 T03660168  RH  031%=      5-min Rain = 0
KST2 032033Z 14009KT 37/17 A2998 RMK A01 T03660171  RH  032%=      5-min Rain = 0
KST2 032034Z 13010KT 37/17 A2998 RMK A01 T03680170  RH  031%=      5-min Rain = 0
KST2 032035Z 14010KT 37/17 A2998 RMK A01 T03680168  RH  031%=      5-min Rain = 0
KST2 032036Z 14010KT 37/17 A2998 RMK A01 T03660166  RH  031%=      5-min Rain = 0
KST2 032037Z 13006KT 36/16 A2998 RMK A01 T03630164  RH  031%=      5-min Rain = 0
KST2 032038Z 14006KT 36/16 A2998 RMK A01 T03610161  RH  031%=      5-min Rain = 0
KST2 032039Z 13004G12KT 36/16 A2998 RMK A01 T03610157  RH  030%=      5-min Rain = 0
KST2 032040Z 16011KT 36/16 A2998 RMK A01 T03630159  RH  030%=      5-min Rain = 0
KST2 032041Z 14008KT 36/16 A2998 RMK A01 T03640156  RH  029%=      5-min Rain = 0
KST2 032042Z 13011KT 36/16 A2998 RMK A01 T03640163  RH  031%=      5-min Rain = 0
KST2 032043Z 12013KT 37/16 A2998 RMK A01 T03680162  RH  030%=      5-min Rain = 0
KST2 032044Z 13012KT 37/16 A2998 RMK A01 T03700162  RH  029%=      5-min Rain = 0
KST2 032045Z 14011KT 37/16 A2998 RMK A01 T03690159  RH  029%=      5-min Rain = 0
KST2 032046Z 13011KT 37/16 A2998 RMK A01 T03680156  RH  029%=      5-min Rain = 0
KST2 032047Z 13009KT 37/16 A2998 RMK A01 T03660156  RH  029%=      5-min Rain = 0
KST2 032048Z 12008KT 37/16 A2998 RMK A01 T03650157  RH  029%=      5-min Rain = 0
KST2 032049Z 11006KT 36/15 A2998 RMK A01 T03640152  RH  028%=      5-min Rain = 0
KST2 032050Z 11005KT 36/15 A2998 RMK A01 T03630153  RH  029%=      5-min Rain = 0
KST2 032051Z 16007KT 36/16 A2998 RMK A01 T03620155  RH  029%=      5-min Rain = 0
KST2 032052Z 19004KT 36/16 A2998 RMK A01 T03630157  RH  030%=      5-min Rain = 0
KST2 032053Z 19003KT 36/16 A2998 RMK A01 T03630159  RH  030%=      5-min Rain = 0
KST2 032054Z 12005KT 36/16 A2998 RMK A01 T03640160  RH  030%=      5-min Rain = 0
KST2 032055Z 15003KT 36/16 A2998 RMK A01 T03640161  RH  030%=      5-min Rain = 0
KST2 032056Z 11004KT 37/16 A2997 RMK A01 T03650160  RH  030%=      5-min Rain = 0
KST2 032057Z 13008KT 37/16 A2997 RMK A01 T03650164  RH  031%=      5-min Rain = 0
KST2 032058Z 15011KT 37/17 A2997 RMK A01 T03690165  RH  030%=      5-min Rain = 0
KST2 032059Z 14007KT 37/16 A2997 RMK A01 T03700159  RH  029%=      5-min Rain = 0
KST2 032100Z 14008KT 37/16 A2997 RMK A01 T03680160  RH  029%=      5-min Rain = 0
KST2 032101Z 15012KT 37/16 A2997 RMK A01 T03680163  RH  030%=      5-min Rain = 0
KST2 032102Z 14009KT 37/16 A2997 RMK A01 T03680160  RH  029%=      5-min Rain = 0
KST2 032103Z 14007KT 37/16 A2997 RMK A01 T03670162  RH  030%=      5-min Rain = 0
KST2 032104Z 14004KT 37/16 A2997 RMK A01 T03690159  RH  029%=      5-min Rain = 0
KST2 032105Z 17002KT 37/16 A2997 RMK A01 T03690155  RH  028%=      5-min Rain = 0
KST2 032106Z 16006KT 37/16 A2997 RMK A01 T03690159  RH  029%=      5-min Rain = 0
KST2 032107Z 18006KT 37/15 A2997 RMK A01 T03700153  RH  028%=      5-min Rain = 0
KST2 032108Z 17006KT 37/15 A2997 RMK A01 T03690152  RH  028%=      5-min Rain = 0
KST2 032109Z 14008KT 37/15 A2997 RMK A01 T03690154  RH  028%=      5-min Rain = 0
KST2 032110Z 14011KT 37/16 A2997 RMK A01 T03690158  RH  029%=      5-min Rain = 0
KST2 032111Z 13008KT 37/15 A2997 RMK A01 T03700152  RH  028%=      5-min Rain = 0
KST2 032112Z 12006KT 37/15 A2997 RMK A01 T03680151  RH  028%=      5-min Rain = 0
KST2 032113Z 13009KT 37/15 A2997 RMK A01 T03660150  RH  028%=      5-min Rain = 0
KST2 032114Z 18009KT 37/13 A2997 RMK A01 T03670132  RH  025%=      5-min Rain = 0
KST2 032115Z 18008KT 37/12 A2997 RMK A01 T03690122  RH  023%=      5-min Rain = 0
KST2 032116Z 17008KT 37/13 A2997 RMK A01 T03710128  RH  023%=      5-min Rain = 0
KST2 032117Z 17007KT 37/13 A2997 RMK A01 T03710128  RH  023%=      5-min Rain = 0
KST2 032118Z 16005KT 37/13 A2997 RMK A01 T03720129  RH  023%=      5-min Rain = 0
KST2 032119Z 12008KT 37/14 A2997 RMK A01 T03730139  RH  025%=      5-min Rain = 0
KST2 032120Z 10007KT 37/15 A2997 RMK A01 T03700145  RH  026%=      5-min Rain = 0
KST2 032121Z 10006KT 37/15 A2997 RMK A01 T03670145  RH  027%=      5-min Rain = 0
KST2 032122Z 10007KT 37/14 A2997 RMK A01 T03670144  RH  026%=      5-min Rain = 0
KST2 032123Z 09007KT 37/15 A2997 RMK A01 T03680150  RH  027%=      5-min Rain = 0
KST2 032124Z 08006KT 37/15 A2996 RMK A01 T03670148  RH  027%=      5-min Rain = 0
KST2 032125Z 08004KT 37/15 A2996 RMK A01 T03660146  RH  027%=      5-min Rain = 0
KST2 032126Z 14006KT 37/15 A2996 RMK A01 T03660150  RH  028%=      5-min Rain = 0
KST2 032127Z 11003KT 37/15 A2996 RMK A01 T03670150  RH  028%=      5-min Rain = 0
KST2 032128Z 11002KT 37/15 A2996 RMK A01 T03670151  RH  028%=      5-min Rain = 0
KST2 032129Z 18008KT 37/15 A2996 RMK A01 T03670146  RH  027%=      5-min Rain = 0
KST2 032130Z 17007KT 37/14 A2996 RMK A01 T03680144  RH  026%=      5-min Rain = 0
KST2 032131Z 16007KT 37/15 A2996 RMK A01 T03670145  RH  027%=      5-min Rain = 0
KST2 032132Z 15006KT 37/15 A2996 RMK A01 T03660145  RH  027%=      5-min Rain = 0
KST2 032133Z 14008KT 37/15 A2996 RMK A01 T03670149  RH  027%=      5-min Rain = 0
KST2 032134Z 14013KT 37/15 A2996 RMK A01 T03700152  RH  027%=      5-min Rain = 0
KST2 032135Z 13009KT 37/15 A2996 RMK A01 T03710148  RH  027%=      5-min Rain = 0
KST2 032136Z 11007KT 37/15 A2996 RMK A01 T03700145  RH  026%=      5-min Rain = 0
KST2 032137Z 08005KT 37/14 A2996 RMK A01 T03670143  RH  026%=      5-min Rain = 0
KST2 032138Z 08006KT 37/15 A2996 RMK A01 T03650145  RH  027%=      5-min Rain = 0
KST2 032139Z 08005KT 36/15 A2996 RMK A01 T03640149  RH  028%=      5-min Rain = 0
KST2 032140Z 08004KT 36/15 A2996 RMK A01 T03640146  RH  027%=      5-min Rain = 0
KST2 032141Z 09003KT 37/14 A2996 RMK A01 T03650144  RH  027%=      5-min Rain = 0
KST2 032142Z 14007KT 37/15 A2996 RMK A01 T03670153  RH  028%=      5-min Rain = 0
KST2 032143Z 13010KT 37/16 A2996 RMK A01 T03690160  RH  029%=      5-min Rain = 0
KST2 032144Z 12008KT 37/15 A2996 RMK A01 T03720150  RH  027%=      5-min Rain = 0
KST2 032145Z 12009KT 37/16 A2996 RMK A01 T03690156  RH  028%=      5-min Rain = 0
KST2 032146Z 11008KT 37/15 A2996 RMK A01 T03690148  RH  027%=      5-min Rain = 0
KST2 032147Z 11008KT 37/15 A2996 RMK A01 T03680154  RH  028%=      5-min Rain = 0
KST2 032148Z 13007KT 37/14 A2996 RMK A01 T03660143  RH  026%=      5-min Rain = 0
KST2 032149Z 12008KT 37/15 A2996 RMK A01 T03650146  RH  027%=      5-min Rain = 0
KST2 032150Z 12005KT 37/15 A2996 RMK A01 T03660150  RH  028%=      5-min Rain = 0
KST2 032151Z 12007KT 37/15 A2996 RMK A01 T03660153  RH  028%=      5-min Rain = 0
KST2 032152Z 10005KT 37/15 A2996 RMK A01 T03650147  RH  027%=      5-min Rain = 0
KST2 032153Z 09005KT 36/15 A2996 RMK A01 T03640146  RH  027%=      5-min Rain = 0
KST2 032154Z 10008KT 37/15 A2996 RMK A01 T03650154  RH  029%=      5-min Rain = 0
KST2 032155Z 10009KT 37/16 A2996 RMK A01 T03660157  RH  029%=      5-min Rain = 0
KST2 032156Z 11008KT 37/16 A2996 RMK A01 T03650156  RH  029%=      5-min Rain = 0
KST2 032157Z 11007KT 37/16 A2996 RMK A01 T03650155  RH  029%=      5-min Rain = 0
KST2 032158Z 13006KT 36/16 A2996 RMK A01 T03640157  RH  029%=      5-min Rain = 0
KST2 032159Z 11007KT 37/15 A2996 RMK A01 T03660154  RH  029%=      5-min Rain = 0
KST2 032200Z 09005KT 37/15 A2995 RMK A01 T03650154  RH  029%=      5-min Rain = 0
KST2 032201Z 06003KT 36/15 A2995 RMK A01 T03640153  RH  029%=      5-min Rain = 0
KST2 032202Z 08002KT 36/16 A2995 RMK A01 T03630156  RH  029%=      5-min Rain = 0
KST2 032203Z 16004KT 36/16 A2995 RMK A01 T03630159  RH  030%=      5-min Rain = 0
KST2 032204Z 19003KT 37/16 A2995 RMK A01 T03650162  RH  030%=      5-min Rain = 0
KST2 032205Z 20005KT 37/17 A2995 RMK A01 T03650165  RH  031%=      5-min Rain = 0
KST2 032206Z 22002KT 37/16 A2995 RMK A01 T03660162  RH  030%=      5-min Rain = 0
KST2 032207Z 22000KT 37/17 A2995 RMK A01 T03660172  RH  032%=      5-min Rain = 0
KST2 032208Z 14003G8KT 37/16 A2995 RMK A01 T03680163  RH  030%=      5-min Rain = 0
KST2 032209Z 11008KT 37/16 A2995 RMK A01 T03690161  RH  029%=      5-min Rain = 0
KST2 032210Z 10006KT 37/16 A2995 RMK A01 T03680158  RH  029%=      5-min Rain = 0
KST2 032211Z 12004KT 37/16 A2995 RMK A01 T03660157  RH  029%=      5-min Rain = 0
KST2 032212Z 12007KT 37/16 A2995 RMK A01 T03650160  RH  030%=      5-min Rain = 0
KST2 032213Z 09006KT 37/16 A2995 RMK A01 T03670157  RH  029%=      5-min Rain = 0
KST2 032214Z 09005KT 37/16 A2995 RMK A01 T03680158  RH  029%=      5-min Rain = 0
KST2 032215Z 08005KT 37/16 A2995 RMK A01 T03690158  RH  029%=      5-min Rain = 0
KST2 032216Z 11006KT 37/16 A2995 RMK A01 T03690157  RH  029%=      5-min Rain = 0
KST2 032217Z 11008KT 37/16 A2995 RMK A01 T03680158  RH  029%=      5-min Rain = 0
KST2 032218Z 11007KT 37/16 A2995 RMK A01 T03670155  RH  028%=      5-min Rain = 0
KST2 032219Z 11007KT 37/16 A2995 RMK A01 T03670158  RH  029%=      5-min Rain = 0
KST2 032220Z 14010KT 37/16 A2995 RMK A01 T03670158  RH  029%=      5-min Rain = 0
KST2 032221Z 14010KT 37/15 A2995 RMK A01 T03680154  RH  028%=      5-min Rain = 0
KST2 032222Z 15008KT 37/15 A2995 RMK A01 T03680151  RH  028%=      5-min Rain = 0
KST2 032223Z 15008KT 37/16 A2995 RMK A01 T03680160  RH  029%=      5-min Rain = 0
KST2 032224Z 15008KT 37/15 A2995 RMK A01 T03710154  RH  028%=      5-min Rain = 0
KST2 032225Z 15006KT 37/15 A2995 RMK A01 T03700153  RH  028%=      5-min Rain = 0
KST2 032226Z 15003KT 37/15 A2995 RMK A01 T03680150  RH  027%=      5-min Rain = 0
KST2 032227Z 15002KT 37/15 A2994 RMK A01 T03670151  RH  028%=      5-min Rain = 0
KST2 032228Z 15002KT 37/15 A2994 RMK A01 T03670152  RH  028%=      5-min Rain = 0
KST2 032229Z 16003KT 37/15 A2994 RMK A01 T03670153  RH  028%=      5-min Rain = 0
KST2 032230Z 15007G12KT 37/16 A2994 RMK A01 T03680162  RH  030%=      5-min Rain = 0
KST2 032231Z 14008KT 37/16 A2994 RMK A01 T03690160  RH  029%=      5-min Rain = 0
KST2 032232Z 14007KT 37/16 A2994 RMK A01 T03680160  RH  029%=      5-min Rain = 0
KST2 032233Z 13006KT 37/16 A2994 RMK A01 T03670159  RH  029%=      5-min Rain = 0
KST2 032234Z 13004KT 37/16 A2994 RMK A01 T03660158  RH  029%=      5-min Rain = 0
KST2 032235Z 13004KT 37/16 A2994 RMK A01 T03650160  RH  030%=      5-min Rain = 0
KST2 032236Z 16003KT 37/16 A2994 RMK A01 T03650160  RH  030%=      5-min Rain = 0
KST2 032237Z 17003KT 37/16 A2994 RMK A01 T03660162  RH  030%=      5-min Rain = 0
KST2 032238Z 16004KT 37/16 A2994 RMK A01 T03670160  RH  030%=      5-min Rain = 0
KST2 032239Z 16001KT 37/16 A2994 RMK A01 T03670160  RH  029%=      5-min Rain = 0
KST2 032240Z 16001KT 37/16 A2994 RMK A01 T03680158  RH  029%=      5-min Rain = 0
KST2 032241Z 17001KT 37/16 A2994 RMK A01 T03680160  RH  029%=      5-min Rain = 0
KST2 032242Z 14006KT 37/16 A2994 RMK A01 T03700160  RH  029%=      5-min Rain = 0
KST2 032243Z 14009KT 37/16 A2994 RMK A01 T03710156  RH  028%=      5-min Rain = 0
KST2 032244Z 12007KT 37/15 A2994 RMK A01 T03710150  RH  027%=      5-min Rain = 0
KST2 032245Z 14007KT 37/15 A2994 RMK A01 T03700150  RH  027%=      5-min Rain = 0
KST2 032246Z 13005KT 37/15 A2994 RMK A01 T03700154  RH  028%=      5-min Rain = 0
KST2 032247Z 12006KT 37/16 A2994 RMK A01 T03690155  RH  028%=      5-min Rain = 0
KST2 032248Z 12007KT 37/16 A2994 RMK A01 T03680158  RH  029%=      5-min Rain = 0
KST2 032249Z 13010KT 37/16 A2994 RMK A01 T03680162  RH  030%=      5-min Rain = 0
KST2 032250Z 13009KT 37/16 A2994 RMK A01 T03680163  RH  030%=      5-min Rain = 0
KST2 032251Z 11008KT 37/16 A2994 RMK A01 T03680163  RH  030%=      5-min Rain = 0
KST2 032252Z 12008KT 37/16 A2994 RMK A01 T03670163  RH  030%=      5-min Rain = 0
KST2 032253Z 13009KT 37/16 A2994 RMK A01 T03670160  RH  029%=      5-min Rain = 0
KST2 032254Z 13008KT 37/16 A2994 RMK A01 T03670160  RH  029%=      5-min Rain = 0
KST2 032255Z 14006KT 37/16 A2994 RMK A01 T03660157  RH  029%=      5-min Rain = 0
KST2 032256Z 12006KT 37/16 A2994 RMK A01 T03660161  RH  030%=      5-min Rain = 0
KST2 032257Z 11006KT 37/16 A2994 RMK A01 T03670162  RH  030%=      5-min Rain = 0
KST2 032258Z 11005KT 37/16 A2994 RMK A01 T03690159  RH  029%=      5-min Rain = 0
KST2 032259Z 12005KT 37/16 A2994 RMK A01 T03680155  RH  028%=      5-min Rain = 0
KST2 032300Z 14005KT 37/16 A2994 RMK A01 T03670155  RH  029%=      5-min Rain = 0
KST2 032301Z 14005KT 37/16 A2994 RMK A01 T03660158  RH  029%=      5-min Rain = 0
KST2 032302Z 15005KT 37/16 A2994 RMK A01 T03660162  RH  030%=      5-min Rain = 0
KST2 032303Z 17003KT 37/16 A2994 RMK A01 T03650163  RH  030%=      5-min Rain = 0
KST2 032304Z 17001KT 37/17 A2993 RMK A01 T03650165  RH  031%=      5-min Rain = 0
KST2 032305Z 13003KT 37/17 A2993 RMK A01 T03650166  RH  031%=      5-min Rain = 0
KST2 032306Z 13004KT 37/17 A2993 RMK A01 T03650167  RH  031%=      5-min Rain = 0
KST2 032307Z 12007KT 37/17 A2993 RMK A01 T03670168  RH  031%=      5-min Rain = 0
KST2 032308Z 13010KT 37/16 A2993 RMK A01 T03680164  RH  030%=      5-min Rain = 0
KST2 032309Z 13010KT 37/16 A2994 RMK A01 T03680163  RH  030%=      5-min Rain = 0
KST2 032310Z 12009KT 37/16 A2994 RMK A01 T03680164  RH  030%=      5-min Rain = 0
KST2 032311Z 12008KT 37/17 A2994 RMK A01 T03680168  RH  031%=      5-min Rain = 0
KST2 032312Z 13009KT 37/17 A2994 RMK A01 T03690166  RH  030%=      5-min Rain = 0
KST2 032313Z 14010KT 37/17 A2994 RMK A01 T03690169  RH  031%=      5-min Rain = 0
KST2 032314Z 14009KT 37/17 A2994 RMK A01 T03680168  RH  031%=      5-min Rain = 0
KST2 032315Z 13008KT 37/17 A2994 RMK A01 T03670170  RH  031%=      5-min Rain = 0
KST2 032316Z 14007KT 37/17 A2994 RMK A01 T03670171  RH  032%=      5-min Rain = 0
KST2 032317Z 15008KT 37/17 A2994 RMK A01 T03690169  RH  031%=      5-min Rain = 0
KST2 032318Z 15006KT 37/17 A2994 RMK A01 T03680165  RH  030%=      5-min Rain = 0
KST2 032319Z 13005KT 37/17 A2993 RMK A01 T03670165  RH  030%=      5-min Rain = 0
KST2 032320Z 15003KT 37/16 A2993 RMK A01 T03660161  RH  030%=      5-min Rain = 0
KST2 032321Z 15003KT 37/16 A2993 RMK A01 T03660162  RH  030%=      5-min Rain = 0
KST2 032322Z 13004KT 37/17 A2993 RMK A01 T03660167  RH  031%=      5-min Rain = 0
KST2 032323Z 12006KT 37/17 A2993 RMK A01 T03670172  RH  032%=      5-min Rain = 0
KST2 032324Z 14006KT 37/18 A2993 RMK A01 T03690176  RH  032%=      5-min Rain = 0
KST2 032325Z 14008KT 37/18 A2993 RMK A01 T03700179  RH  033%=      5-min Rain = 0
KST2 032326Z 14010KT 37/18 A2993 RMK A01 T03710178  RH  032%=      5-min Rain = 0
KST2 032327Z 13009KT 37/18 A2993 RMK A01 T03700175  RH  032%=      5-min Rain = 0
KST2 032328Z 13008KT 37/18 A2993 RMK A01 T03680176  RH  033%=      5-min Rain = 0
KST2 032329Z 15008KT 37/18 A2993 RMK A01 T03670175  RH  032%=      5-min Rain = 0
KST2 032330Z 15008KT 37/17 A2993 RMK A01 T03670174  RH  032%=      5-min Rain = 0
KST2 032331Z 16009KT 37/17 A2993 RMK A01 T03660172  RH  032%=      5-min Rain = 0
KST2 032332Z 16008KT 36/17 A2993 RMK A01 T03640171  RH  032%=      5-min Rain = 0
KST2 032333Z 14008KT 36/17 A2993 RMK A01 T03640173  RH  032%=      5-min Rain = 0
KST2 032334Z 15008KT 36/17 A2993 RMK A01 T03640171  RH  032%=      5-min Rain = 0
KST2 032335Z 15006KT 36/17 A2993 RMK A01 T03630169  RH  032%=      5-min Rain = 0
KST2 032336Z 16004KT 36/17 A2993 RMK A01 T03630169  RH  032%=      5-min Rain = 0
KST2 032337Z 16004KT 36/17 A2993 RMK A01 T03630170  RH  032%=      5-min Rain = 0
KST2 032338Z 16004KT 36/17 A2993 RMK A01 T03630171  RH  032%=      5-min Rain = 0
KST2 032339Z 15004KT 36/17 A2993 RMK A01 T03630173  RH  033%=      5-min Rain = 0
KST2 032340Z 16004KT 36/17 A2993 RMK A01 T03640170  RH  032%=      5-min Rain = 0
KST2 032341Z 17005KT 36/17 A2993 RMK A01 T03640170  RH  032%=      5-min Rain = 0
KST2 032342Z 16005KT 37/17 A2993 RMK A01 T03650168  RH  031%=      5-min Rain = 0
KST2 032343Z 15006KT 37/17 A2993 RMK A01 T03650168  RH  031%=      5-min Rain = 0
KST2 032344Z 15006KT 36/17 A2993 RMK A01 T03640169  RH  032%=      5-min Rain = 0
KST2 032345Z 14007KT 36/17 A2993 RMK A01 T03640172  RH  032%=      5-min Rain = 0
KST2 032346Z 16009KT 37/17 A2993 RMK A01 T03650170  RH  032%=      5-min Rain = 0
KST2 032347Z 16008KT 37/17 A2993 RMK A01 T03650167  RH  031%=      5-min Rain = 0
KST2 032348Z 15008KT 36/17 A2993 RMK A01 T03640167  RH  031%=      5-min Rain = 0
KST2 032349Z 16006KT 36/17 A2993 RMK A01 T03640168  RH  031%=      5-min Rain = 0
KST2 032350Z 17008KT 36/16 A2993 RMK A01 T03640164  RH  031%=      5-min Rain = 0
KST2 032351Z 17006KT 36/16 A2993 RMK A01 T03640164  RH  031%=      5-min Rain = 0
KST2 032352Z 18005KT 36/16 A2993 RMK A01 T03640164  RH  031%=      5-min Rain = 0
KST2 032353Z 18006KT 36/17 A2993 RMK A01 T03640167  RH  031%=      5-min Rain = 0
KST2 032354Z 16005KT 36/17 A2993 RMK A01 T03630167  RH  031%=      5-min Rain = 0
KST2 032355Z 14008G13KT 36/17 A2993 RMK A01 T03630169  RH  032%=      5-min Rain = 0
KST2 032356Z 14006KT 36/17 A2993 RMK A01 T03630169  RH  032%=      5-min Rain = 0
KST2 032357Z 15008KT 37/17 A2993 RMK A01 T03650171  RH  032%=      5-min Rain = 0
KST2 032358Z 15008KT 37/17 A2993 RMK A01 T03650167  RH  031%=      5-min Rain = 0
KST2 032359Z 16006KT 36/17 A2993 RMK A01 T03640168  RH  032%=      5-min Rain = 0
KST2 040000Z 16008KT 36/17 A2993 RMK A01 T03630170  RH  032%=      5-min Rain = 0
KST2 040001Z 16008KT 36/17 A2993 RMK A01 T03630171  RH  032%=      5-min Rain = 0
KST2 040002Z 15007KT 36/18 A2993 RMK A01 T03640175  RH  033%=      5-min Rain = 0
KST2 040003Z 15005KT 36/17 A2993 RMK A01 T03630174  RH  033%=      5-min Rain = 0
KST2 040004Z 15006KT 36/18 A2993 RMK A01 T03640177  RH  033%=      5-min Rain = 0
KST2 040005Z 15007KT 36/18 A2993 RMK A01 T03640176  RH  033%=      5-min Rain = 0
KST2 040006Z 16006KT 36/17 A2993 RMK A01 T03640172  RH  032%=      5-min Rain = 0
KST2 040007Z 16007KT 36/17 A2993 RMK A01 T03630171  RH  032%=      5-min Rain = 0
KST2 040008Z 16008KT 36/17 A2993 RMK A01 T03620171  RH  032%=      5-min Rain = 0
KST2 040009Z 17005KT 36/17 A2993 RMK A01 T03620166  RH  031%=      5-min Rain = 0
KST2 040010Z 17005KT 36/17 A2993 RMK A01 T03610167  RH  032%=      5-min Rain = 0
KST2 040011Z 18005KT 36/17 A2993 RMK A01 T03610167  RH  032%=      5-min Rain = 0
KST2 040012Z 16006KT 36/17 A2993 RMK A01 T03600167  RH  032%=      5-min Rain = 0
KST2 040013Z 14006KT 36/17 A2993 RMK A01 T03600166  RH  032%=      5-min Rain = 0
KST2 040014Z 14005KT 36/17 A2993 RMK A01 T03600166  RH  032%=      5-min Rain = 0
KST2 040015Z 15005KT 36/17 A2993 RMK A01 T03610165  RH  031%=      5-min Rain = 0
KST2 040016Z 14006KT 36/17 A2993 RMK A01 T03610167  RH  032%=      5-min Rain = 0
KST2 040017Z 14007KT 36/17 A2993 RMK A01 T03610165  RH  031%=      5-min Rain = 0
KST2 040018Z 14006KT 36/17 A2993 RMK A01 T03610165  RH  031%=      5-min Rain = 0
KST2 040019Z 15007KT 36/17 A2993 RMK A01 T03610166  RH  032%=      5-min Rain = 0
KST2 040020Z 14007KT 36/17 A2993 RMK A01 T03610168  RH  032%=      5-min Rain = 0
KST2 040021Z 15007KT 36/17 A2993 RMK A01 T03610167  RH  032%=      5-min Rain = 0
KST2 040022Z 14007KT 36/17 A2993 RMK A01 T03610168  RH  032%=      5-min Rain = 0
KST2 040023Z 13007KT 36/17 A2993 RMK A01 T03610167  RH  032%=      5-min Rain = 0
KST2 040024Z 13007KT 36/17 A2993 RMK A01 T03610167  RH  032%=      5-min Rain = 0
KST2 040025Z 13005KT 36/17 A2993 RMK A01 T03600170  RH  033%=      5-min Rain = 0
KST2 040026Z 13005KT 36/17 A2993 RMK A01 T03600171  RH  033%=      5-min Rain = 0
KST2 040027Z 15007KT 36/17 A2993 RMK A01 T03600173  RH  033%=      5-min Rain = 0
KST2 040028Z 15007KT 36/17 A2993 RMK A01 T03600174  RH  033%=      5-min Rain = 0
KST2 040029Z 13007KT 36/17 A2993 RMK A01 T03600173  RH  033%=      5-min Rain = 0
KST2 040030Z 14005KT 36/17 A2993 RMK A01 T03600173  RH  033%=      5-min Rain = 0
KST2 040031Z 15007KT 36/17 A2993 RMK A01 T03590172  RH  033%=      5-min Rain = 0
KST2 040032Z 15006KT 36/17 A2993 RMK A01 T03590170  RH  033%=      5-min Rain = 0
KST2 040033Z 15006KT 36/17 A2993 RMK A01 T03590174  RH  033%=      5-min Rain = 0
KST2 040034Z 15007KT 36/17 A2993 RMK A01 T03590173  RH  033%=      5-min Rain = 0
KST2 040035Z 14007KT 36/17 A2993 RMK A01 T03590168  RH  032%=      5-min Rain = 0
KST2 040036Z 15006KT 36/17 A2993 RMK A01 T03580168  RH  032%=      5-min Rain = 0
KST2 040037Z 15006KT 36/17 A2993 RMK A01 T03580171  RH  033%=      5-min Rain = 0
KST2 040038Z 15006KT 36/17 A2993 RMK A01 T03580172  RH  033%=      5-min Rain = 0
KST2 040039Z 15006KT 36/18 A2993 RMK A01 T03580176  RH  034%=      5-min Rain = 0
KST2 040040Z 15006KT 36/17 A2993 RMK A01 T03580172  RH  033%=      5-min Rain = 0
KST2 040041Z 14006KT 36/17 A2993 RMK A01 T03580172  RH  034%=      5-min Rain = 0
KST2 040042Z 14007KT 36/17 A2993 RMK A01 T03570171  RH  033%=      5-min Rain = 0
KST2 040043Z 14007KT 36/17 A2993 RMK A01 T03570170  RH  033%=      5-min Rain = 0
KST2 040044Z 14007KT 36/17 A2993 RMK A01 T03570168  RH  033%=      5-min Rain = 0
KST2 040045Z 13006KT 36/17 A2993 RMK A01 T03570167  RH  033%=      5-min Rain = 0
KST2 040046Z 14008KT 36/17 A2993 RMK A01 T03570168  RH  033%=      5-min Rain = 0
KST2 040047Z 14007KT 36/17 A2993 RMK A01 T03560168  RH  033%=      5-min Rain = 0
KST2 040048Z 13007KT 36/17 A2993 RMK A01 T03560171  RH  033%=      5-min Rain = 0
KST2 040049Z 13006KT 36/17 A2993 RMK A01 T03550174  RH  034%=      5-min Rain = 0
KST2 040050Z 14007KT 36/18 A2994 RMK A01 T03550175  RH  035%=      5-min Rain = 0
KST2 040051Z 13007KT 35/17 A2994 RMK A01 T03540174  RH  035%=      5-min Rain = 0
KST2 040052Z 14007KT 35/17 A2994 RMK A01 T03540172  RH  034%=      5-min Rain = 0
KST2 040053Z 14006KT 35/17 A2994 RMK A01 T03540172  RH  034%=      5-min Rain = 0
KST2 040054Z 14006KT 35/17 A2994 RMK A01 T03540172  RH  034%=      5-min Rain = 0
KST2 040055Z 14006KT 35/17 A2994 RMK A01 T03540173  RH  034%=      5-min Rain = 0
KST2 040056Z 14006KT 35/17 A2994 RMK A01 T03530173  RH  035%=      5-min Rain = 0
KST2 040057Z 14006KT 35/17 A2994 RMK A01 T03520174  RH  035%=      5-min Rain = 0
KST2 040058Z 14006KT 35/17 A2994 RMK A01 T03520174  RH  035%=      5-min Rain = 0
KST2 040059Z 13006KT 35/17 A2994 RMK A01 T03510173  RH  035%=      5-min Rain = 0
KST2 040100Z 14006KT 35/17 A2994 RMK A01 T03510174  RH  035%=      5-min Rain = 0
KST2 040101Z 14005KT 35/18 A2994 RMK A01 T03510176  RH  036%=      5-min Rain = 0
KST2 040102Z 13005KT 35/18 A2994 RMK A01 T03510178  RH  036%=      5-min Rain = 0
KST2 040103Z 13006KT 35/18 A2994 RMK A01 T03490179  RH  037%=      5-min Rain = 0
KST2 040104Z 14006KT 35/18 A2994 RMK A01 T03490180  RH  037%=      5-min Rain = 0
KST2 040105Z 14006KT 35/18 A2994 RMK A01 T03480181  RH  037%=      5-min Rain = 0
KST2 040106Z 14006KT 35/18 A2994 RMK A01 T03470183  RH  038%=      5-min Rain = 0
KST2 040107Z 13006KT 35/18 A2994 RMK A01 T03470182  RH  038%=      5-min Rain = 0
KST2 040108Z 13006KT 35/18 A2994 RMK A01 T03460183  RH  038%=      5-min Rain = 0
KST2 040109Z 13006KT 35/18 A2994 RMK A01 T03450183  RH  038%=      5-min Rain = 0
KST2 040110Z 13006KT 35/18 A2994 RMK A01 T03450184  RH  039%=      5-min Rain = 0
KST2 040111Z 12006KT 34/18 A2994 RMK A01 T03440183  RH  039%=      5-min Rain = 0
KST2 040112Z 12006KT 34/18 A2994 RMK A01 T03430183  RH  039%=      5-min Rain = 0
KST2 040113Z 12006KT 34/18 A2994 RMK A01 T03430184  RH  039%=      5-min Rain = 0
KST2 040114Z 12006KT 34/18 A2994 RMK A01 T03420184  RH  039%=      5-min Rain = 0
KST2 040115Z 12006KT 34/18 A2994 RMK A01 T03410183  RH  039%=      5-min Rain = 0
KST2 040116Z 12007KT 34/18 A2994 RMK A01 T03410183  RH  039%=      5-min Rain = 0
KST2 040117Z 11007KT 34/18 A2994 RMK A01 T03410181  RH  039%=      5-min Rain = 0
KST2 040118Z 11007KT 34/18 A2994 RMK A01 T03410183  RH  039%=      5-min Rain = 0
KST2 040119Z 10007KT 34/19 A2994 RMK A01 T03420188  RH  040%=      5-min Rain = 0
KST2 040120Z 09008KT 34/19 A2994 RMK A01 T03420191  RH  041%=      5-min Rain = 0
KST2 040121Z 09006KT 34/19 A2994 RMK A01 T03420192  RH  041%=      5-min Rain = 0
KST2 040122Z 10007KT 34/19 A2994 RMK A01 T03420194  RH  042%=      5-min Rain = 0
KST2 040123Z 11006KT 34/19 A2994 RMK A01 T03420193  RH  042%=      5-min Rain = 0
KST2 040124Z 11007KT 34/19 A2994 RMK A01 T03410191  RH  041%=      5-min Rain = 0
KST2 040125Z 11008KT 34/19 A2994 RMK A01 T03410191  RH  041%=      5-min Rain = 0
KST2 040126Z 11006KT 34/19 A2994 RMK A01 T03410192  RH  042%=      5-min Rain = 0
KST2 040127Z 10007KT 34/19 A2994 RMK A01 T03410193  RH  042%=      5-min Rain = 0
KST2 040128Z 10008KT 34/19 A2994 RMK A01 T03400193  RH  042%=      5-min Rain = 0
KST2 040129Z 10008KT 34/19 A2994 RMK A01 T03400193  RH  042%=      5-min Rain = 0
KST2 040130Z 10007KT 34/19 A2994 RMK A01 T03400194  RH  042%=      5-min Rain = 0
KST2 040131Z 10006KT 34/19 A2994 RMK A01 T03390194  RH  043%=      5-min Rain = 0
KST2 040132Z 10008KT 34/20 A2994 RMK A01 T03380195  RH  043%=      5-min Rain = 0
KST2 040133Z 09008KT 34/20 A2994 RMK A01 T03380195  RH  043%=      5-min Rain = 0
KST2 040134Z 09008KT 34/20 A2994 RMK A01 T03380195  RH  043%=      5-min Rain = 0
KST2 040135Z 09008KT 34/20 A2994 RMK A01 T03380196  RH  043%=      5-min Rain = 0
KST2 040136Z 09007KT 34/20 A2994 RMK A01 T03370196  RH  044%=      5-min Rain = 0
KST2 040137Z 09006KT 34/20 A2994 RMK A01 T03360196  RH  044%=      5-min Rain = 0
KST2 040138Z 10006KT 34/20 A2994 RMK A01 T03360197  RH  044%=      5-min Rain = 0
KST2 040139Z 09005KT 34/20 A2994 RMK A01 T03350197  RH  044%=      5-min Rain = 0
KST2 040140Z 09004KT 33/20 A2994 RMK A01 T03330198  RH  045%=      5-min Rain = 0
KST2 040141Z 10005KT 33/20 A2994 RMK A01 T03330198  RH  045%=      5-min Rain = 0
KST2 040142Z 10006KT 33/20 A2994 RMK A01 T03320198  RH  045%=      5-min Rain = 0
KST2 040143Z 10006KT 33/20 A2994 RMK A01 T03310198  RH  046%=      5-min Rain = 0
KST2 040144Z 10005KT 33/20 A2994 RMK A01 T03300198  RH  046%=      5-min Rain = 0
KST2 040145Z 10005KT 33/20 A2994 RMK A01 T03290199  RH  046%=      5-min Rain = 0
KST2 040146Z 10005KT 33/20 A2994 RMK A01 T03290199  RH  047%=      5-min Rain = 0
KST2 040147Z 10004KT 33/20 A2994 RMK A01 T03280200  RH  047%=      5-min Rain = 0
KST2 040148Z 11005KT 33/20 A2994 RMK A01 T03270200  RH  047%=      5-min Rain = 0
KST2 040149Z 10005KT 33/20 A2994 RMK A01 T03260200  RH  047%=      5-min Rain = 0
KST2 040150Z 09005KT 33/20 A2994 RMK A01 T03260200  RH  048%=      5-min Rain = 0
KST2 040151Z 09005KT 33/20 A2994 RMK A01 T03250200  RH  048%=      5-min Rain = 0
KST2 040152Z 10006KT 33/20 A2994 RMK A01 T03250200  RH  048%=      5-min Rain = 0
KST2 040153Z 10006KT 32/20 A2994 RMK A01 T03240200  RH  048%=      5-min Rain = 0
KST2 040154Z 10006KT 32/20 A2994 RMK A01 T03240201  RH  048%=      5-min Rain = 0
KST2 040155Z 10006KT 32/20 A2994 RMK A01 T03230201  RH  049%=      5-min Rain = 0
KST2 040156Z 10006KT 32/20 A2994 RMK A01 T03220202  RH  049%=      5-min Rain = 0
KST2 040157Z 10006KT 32/20 A2994 RMK A01 T03210201  RH  049%=      5-min Rain = 0
KST2 040158Z 10006KT 32/20 A2995 RMK A01 T03210201  RH  049%=      5-min Rain = 0
KST2 040159Z 10006KT 32/20 A2995 RMK A01 T03210201  RH  049%=      5-min Rain = 0
KST2 040200Z 09006KT 32/20 A2995 RMK A01 T03200201  RH  049%=      5-min Rain = 0
KST2 040201Z 09006KT 32/20 A2995 RMK A01 T03210201  RH  049%=      5-min Rain = 0
KST2 040202Z 10007KT 32/20 A2995 RMK A01 T03210200  RH  049%=      5-min Rain = 0
KST2 040203Z 10007KT 32/20 A2995 RMK A01 T03220199  RH  048%=      5-min Rain = 0
KST2 040204Z 10007KT 32/20 A2995 RMK A01 T03220199  RH  048%=      5-min Rain = 0
KST2 040205Z 10008KT 32/20 A2995 RMK A01 T03220199  RH  048%=      5-min Rain = 0
KST2 040206Z 10008KT 32/20 A2995 RMK A01 T03230198  RH  048%=      5-min Rain = 0
KST2 040207Z 09008KT 32/20 A2995 RMK A01 T03230197  RH  047%=      5-min Rain = 0
KST2 040208Z 10009KT 32/20 A2995 RMK A01 T03230196  RH  047%=      5-min Rain = 0
KST2 040209Z 10009KT 32/20 A2995 RMK A01 T03230195  RH  047%=      5-min Rain = 0
KST2 040210Z 10009KT 32/19 A2995 RMK A01 T03230194  RH  046%=      5-min Rain = 0
KST2 040211Z 10009KT 32/19 A2995 RMK A01 T03230193  RH  046%=      5-min Rain = 0
KST2 040212Z 10008KT 32/19 A2995 RMK A01 T03230193  RH  046%=      5-min Rain = 0
KST2 040213Z 10008KT 32/19 A2995 RMK A01 T03230193  RH  046%=      5-min Rain = 0
KST2 040214Z 10008KT 32/19 A2995 RMK A01 T03220193  RH  046%=      5-min Rain = 0
KST2 040215Z 09008KT 32/19 A2995 RMK A01 T03220193  RH  047%=      5-min Rain = 0
KST2 040216Z 10007KT 32/19 A2995 RMK A01 T03210193  RH  047%=      5-min Rain = 0
KST2 040217Z 09007KT 32/19 A2995 RMK A01 T03200194  RH  047%=      5-min Rain = 0
KST2 040218Z 10008KT 32/19 A2995 RMK A01 T03190193  RH  047%=      5-min Rain = 0
KST2 040219Z 10008KT 32/19 A2995 RMK A01 T03180193  RH  047%=      5-min Rain = 0
KST2 040220Z 10007KT 32/19 A2995 RMK A01 T03180193  RH  048%=      5-min Rain = 0
KST2 040221Z 10007KT 32/19 A2995 RMK A01 T03170193  RH  048%=      5-min Rain = 0
KST2 040222Z 10006KT 32/19 A2995 RMK A01 T03160193  RH  048%=      5-min Rain = 0
KST2 040223Z 10006KT 32/19 A2995 RMK A01 T03160193  RH  048%=      5-min Rain = 0
KST2 040224Z 10006KT 32/19 A2996 RMK A01 T03150193  RH  048%=      5-min Rain = 0
KST2 040225Z 10006KT 31/19 A2996 RMK A01 T03140193  RH  049%=      5-min Rain = 0
KST2 040226Z 10006KT 31/19 A2996 RMK A01 T03130193  RH  049%=      5-min Rain = 0
KST2 040227Z 10006KT 31/19 A2996 RMK A01 T03120193  RH  049%=      5-min Rain = 0
KST2 040228Z 10006KT 31/19 A2996 RMK A01 T03120193  RH  049%=      5-min Rain = 0
KST2 040229Z 11006KT 31/19 A2996 RMK A01 T03110193  RH  049%=      5-min Rain = 0
KST2 040230Z 10006KT 31/19 A2996 RMK A01 T03100193  RH  050%=      5-min Rain = 0
KST2 040231Z 10007KT 31/19 A2996 RMK A01 T03100193  RH  050%=      5-min Rain = 0
KST2 040232Z 10006KT 31/19 A2996 RMK A01 T03090193  RH  050%=      5-min Rain = 0
KST2 040233Z 10006KT 31/19 A2996 RMK A01 T03080194  RH  050%=      5-min Rain = 0
KST2 040234Z 10006KT 31/19 A2996 RMK A01 T03070194  RH  051%=      5-min Rain = 0
KST2 040235Z 10007KT 31/19 A2996 RMK A01 T03070194  RH  051%=      5-min Rain = 0
KST2 040236Z 11007KT 31/19 A2996 RMK A01 T03060193  RH  051%=      5-min Rain = 0
KST2 040237Z 10006KT 31/19 A2996 RMK A01 T03060193  RH  051%=      5-min Rain = 0
KST2 040238Z 10006KT 31/19 A2996 RMK A01 T03060194  RH  051%=      5-min Rain = 0
KST2 040239Z 10006KT 31/19 A2996 RMK A01 T03060194  RH  051%=      5-min Rain = 0
KST2 040240Z 10006KT 31/19 A2996 RMK A01 T03060194  RH  051%=      5-min Rain = 0
KST2 040241Z 10006KT 31/19 A2996 RMK A01 T03050193  RH  051%=      5-min Rain = 0
KST2 040242Z 10006KT 31/19 A2996 RMK A01 T03060193  RH  051%=      5-min Rain = 0
KST2 040243Z 10006KT 31/19 A2996 RMK A01 T03050193  RH  051%=      5-min Rain = 0
KST2 040244Z 10007KT 31/19 A2996 RMK A01 T03050193  RH  051%=      5-min Rain = 0
KST2 040245Z 10007KT 31/19 A2996 RMK A01 T03050193  RH  051%=      5-min Rain = 0
KST2 040246Z 10006KT 31/19 A2996 RMK A01 T03050193  RH  051%=      5-min Rain = 0
KST2 040247Z 10006KT 31/19 A2996 RMK A01 T03050193  RH  051%=      5-min Rain = 0
KST2 040248Z 10007KT 31/19 A2996 RMK A01 T03050193  RH  051%=      5-min Rain = 0
KST2 040249Z 10006KT 30/19 A2996 RMK A01 T03040193  RH  051%=      5-min Rain = 0
KST2 040250Z 10007KT 30/19 A2996 RMK A01 T03040192  RH  051%=      5-min Rain = 0
KST2 040251Z 10007KT 30/19 A2997 RMK A01 T03040192  RH  051%=      5-min Rain = 0
KST2 040252Z 10006KT 30/19 A2997 RMK A01 T03040192  RH  051%=      5-min Rain = 0
KST2 040253Z 10007KT 30/19 A2997 RMK A01 T03040193  RH  051%=      5-min Rain = 0
KST2 040254Z 10008KT 30/19 A2997 RMK A01 T03030192  RH  052%=      5-min Rain = 0
KST2 040255Z 09007KT 30/19 A2997 RMK A01 T03030192  RH  052%=      5-min Rain = 0
KST2 040256Z 09007KT 30/19 A2997 RMK A01 T03030193  RH  052%=      5-min Rain = 0
KST2 040257Z 09007KT 30/19 A2997 RMK A01 T03020193  RH  052%=      5-min Rain = 0
KST2 040258Z 10007KT 30/19 A2997 RMK A01 T03020193  RH  052%=      5-min Rain = 0
KST2 040259Z 10007KT 30/19 A2997 RMK A01 T03010193  RH  052%=      5-min Rain = 0
KST2 040300Z 09007KT 30/19 A2997 RMK A01 T03010193  RH  052%=      5-min Rain = 0
KST2 040301Z 10008KT 30/19 A2997 RMK A01 T03010193  RH  052%=      5-min Rain = 0
KST2 040302Z 09008KT 30/19 A2997 RMK A01 T03010193  RH  052%=      5-min Rain = 0
KST2 040303Z 10007KT 30/19 A2997 RMK A01 T03010193  RH  052%=      5-min Rain = 0
KST2 040304Z 10007KT 30/19 A2997 RMK A01 T03000193  RH  053%=      5-min Rain = 0
KST2 040305Z 10007KT 30/19 A2997 RMK A01 T03000193  RH  053%=      5-min Rain = 0
KST2 040306Z 10007KT 30/19 A2997 RMK A01 T03000193  RH  053%=      5-min Rain = 0
KST2 040307Z 10008KT 30/19 A2997 RMK A01 T02990193  RH  053%=      5-min Rain = 0
KST2 040308Z 10008KT 30/19 A2997 RMK A01 T02990193  RH  053%=      5-min Rain = 0
KST2 040309Z 10007KT 30/19 A2997 RMK A01 T02980193  RH  053%=      5-min Rain = 0
KST2 040310Z 10008KT 30/19 A2997 RMK A01 T02980193  RH  053%=      5-min Rain = 0
KST2 040311Z 10007KT 30/19 A2997 RMK A01 T02980193  RH  053%=      5-min Rain = 0
KST2 040312Z 10008KT 30/19 A2997 RMK A01 T02980193  RH  053%=      5-min Rain = 0
KST2 040313Z 10008KT 30/19 A2997 RMK A01 T02980193  RH  053%=      5-min Rain = 0
KST2 040314Z 10008KT 30/19 A2997 RMK A01 T02980194  RH  054%=      5-min Rain = 0
KST2 040315Z 10007KT 30/19 A2997 RMK A01 T02970194  RH  054%=      5-min Rain = 0
KST2 040316Z 10007KT 30/19 A2997 RMK A01 T02970194  RH  054%=      5-min Rain = 0
KST2 040317Z 10007KT 30/20 A2997 RMK A01 T02960195  RH  054%=      5-min Rain = 0
KST2 040318Z 10007KT 30/19 A2997 RMK A01 T02950194  RH  055%=      5-min Rain = 0
KST2 040319Z 10007KT 30/20 A2997 RMK A01 T02950195  RH  055%=      5-min Rain = 0
KST2 040320Z 10007KT 30/20 A2997 RMK A01 T02950195  RH  055%=      5-min Rain = 0
KST2 040321Z 11007KT 30/20 A2997 RMK A01 T02950195  RH  055%=      5-min Rain = 0
KST2 040322Z 11006KT 30/20 A2997 RMK A01 T02950196  RH  055%=      5-min Rain = 0
KST2 040323Z 11007KT 29/20 A2997 RMK A01 T02940196  RH  055%=      5-min Rain = 0
KST2 040324Z 11006KT 29/20 A2998 RMK A01 T02940196  RH  056%=      5-min Rain = 0
KST2 040325Z 11007KT 29/20 A2998 RMK A01 T02930196  RH  056%=      5-min Rain = 0
KST2 040326Z 11006KT 29/20 A2998 RMK A01 T02930197  RH  056%=      5-min Rain = 0
KST2 040327Z 11006KT 29/20 A2998 RMK A01 T02920197  RH  056%=      5-min Rain = 0
KST2 040328Z 11006KT 29/20 A2998 RMK A01 T02920197  RH  057%=      5-min Rain = 0
KST2 040329Z 10006KT 29/20 A2998 RMK A01 T02910197  RH  057%=      5-min Rain = 0
KST2 040330Z 11006KT 29/20 A2998 RMK A01 T02900197  RH  057%=      5-min Rain = 0
KST2 040331Z 11006KT 29/20 A2998 RMK A01 T02900197  RH  057%=      5-min Rain = 0
KST2 040332Z 11006KT 29/20 A2998 RMK A01 T02900197  RH  057%=      5-min Rain = 0
KST2 040333Z 11006KT 29/20 A2998 RMK A01 T02900197  RH  057%=      5-min Rain = 0
KST2 040334Z 11007KT 29/20 A2998 RMK A01 T02900197  RH  057%=      5-min Rain = 0
KST2 040335Z 11006KT 29/20 A2998 RMK A01 T02900198  RH  058%=      5-min Rain = 0
KST2 040336Z 11006KT 29/20 A2998 RMK A01 T02890198  RH  058%=      5-min Rain = 0
KST2 040337Z 11006KT 29/20 A2998 RMK A01 T02880198  RH  058%=      5-min Rain = 0
KST2 040338Z 11006KT 29/20 A2998 RMK A01 T02870197  RH  058%=      5-min Rain = 0
KST2 040339Z 11006KT 29/20 A2998 RMK A01 T02870198  RH  059%=      5-min Rain = 0
KST2 040340Z 11006KT 29/20 A2998 RMK A01 T02860198  RH  059%=      5-min Rain = 0
KST2 040341Z 11006KT 29/20 A2998 RMK A01 T02860198  RH  059%=      5-min Rain = 0
KST2 040342Z 11007KT 29/20 A2998 RMK A01 T02860198  RH  059%=      5-min Rain = 0
KST2 040343Z 11006KT 29/20 A2998 RMK A01 T02860198  RH  059%=      5-min Rain = 0
KST2 040344Z 11007KT 29/20 A2998 RMK A01 T02860198  RH  059%=      5-min Rain = 0
KST2 040345Z 11007KT 29/20 A2998 RMK A01 T02850198  RH  059%=      5-min Rain = 0
KST2 040346Z 11007KT 29/20 A2998 RMK A01 T02850199  RH  059%=      5-min Rain = 0
KST2 040347Z 11007KT 29/20 A2998 RMK A01 T02850199  RH  060%=      5-min Rain = 0
KST2 040348Z 11007KT 29/20 A2998 RMK A01 T02850199  RH  060%=      5-min Rain = 0
KST2 040349Z 11007KT 29/20 A2998 RMK A01 T02850199  RH  060%=      5-min Rain = 0
KST2 040350Z 11007KT 29/20 A2998 RMK A01 T02850199  RH  060%=      5-min Rain = 0
KST2 040351Z 11007KT 29/20 A2998 RMK A01 T02850200  RH  060%=      5-min Rain = 0
KST2 040352Z 11008KT 28/20 A2998 RMK A01 T02840199  RH  060%=      5-min Rain = 0
KST2 040353Z 11007KT 28/20 A2999 RMK A01 T02840200  RH  060%=      5-min Rain = 0
KST2 040354Z 11007KT 28/20 A2999 RMK A01 T02830199  RH  060%=      5-min Rain = 0
KST2 040355Z 11008KT 28/20 A2999 RMK A01 T02830200  RH  060%=      5-min Rain = 0
KST2 040356Z 11007KT 28/20 A2999 RMK A01 T02840200  RH  061%=      5-min Rain = 0
KST2 040357Z 11007KT 28/20 A2999 RMK A01 T02840200  RH  061%=      5-min Rain = 0
KST2 040358Z 11007KT 28/20 A2999 RMK A01 T02830200  RH  061%=      5-min Rain = 0
KST2 040359Z 11007KT 28/20 A2999 RMK A01 T02830200  RH  061%=      5-min Rain = 0
KST2 040400Z 11007KT 28/20 A2999 RMK A01 T02830201  RH  061%=      5-min Rain = 0
KST2 040401Z 11007KT 28/20 A2999 RMK A01 T02820201  RH  061%=      5-min Rain = 0
KST2 040402Z 11006KT 28/20 A2999 RMK A01 T02820201  RH  062%=      5-min Rain = 0
KST2 040403Z 11006KT 28/20 A2999 RMK A01 T02810201  RH  062%=      5-min Rain = 0
KST2 040404Z 11007KT 28/20 A2999 RMK A01 T02810201  RH  062%=      5-min Rain = 0
KST2 040405Z 11006KT 28/20 A2999 RMK A01 T02810202  RH  062%=      5-min Rain = 0
KST2 040406Z 12007KT 28/20 A2999 RMK A01 T02800202  RH  062%=      5-min Rain = 0
KST2 040407Z 12006KT 28/20 A2999 RMK A01 T02800202  RH  063%=      5-min Rain = 0
KST2 040408Z 12007KT 28/20 A2999 RMK A01 T02790202  RH  063%=      5-min Rain = 0
KST2 040409Z 13006KT 28/20 A2999 RMK A01 T02790202  RH  063%=      5-min Rain = 0
KST2 040410Z 13006KT 28/20 A2999 RMK A01 T02780203  RH  063%=      5-min Rain = 0
KST2 040411Z 13006KT 28/20 A2999 RMK A01 T02780203  RH  064%=      5-min Rain = 0
KST2 040412Z 13006KT 28/20 A2999 RMK A01 T02770203  RH  064%=      5-min Rain = 0
KST2 040413Z 13007KT 28/20 A2999 RMK A01 T02760203  RH  064%=      5-min Rain = 0
KST2 040414Z 13007KT 28/20 A2999 RMK A01 T02760203  RH  064%=      5-min Rain = 0
KST2 040415Z 13006KT 28/20 A2999 RMK A01 T02760204  RH  065%=      5-min Rain = 0
KST2 040416Z 14007KT 28/20 A2999 RMK A01 T02760204  RH  065%=      5-min Rain = 0
KST2 040417Z 14007KT 28/20 A2999 RMK A01 T02750204  RH  065%=      5-min Rain = 0
KST2 040418Z 14007KT 28/20 A2999 RMK A01 T02750204  RH  065%=      5-min Rain = 0
KST2 040419Z 14007KT 28/20 A2999 RMK A01 T02750204  RH  065%=      5-min Rain = 0
KST2 040420Z 14007KT 28/20 A2999 RMK A01 T02750204  RH  065%=      5-min Rain = 0
KST2 040421Z 14007KT 28/20 A2999 RMK A01 T02750204  RH  065%=      5-min Rain = 0
KST2 040422Z 14007KT 28/20 A2999 RMK A01 T02750204  RH  065%=      5-min Rain = 0
KST2 040423Z 14008KT 28/20 A2999 RMK A01 T02750204  RH  065%=      5-min Rain = 0
KST2 040424Z 14008KT 28/20 A2999 RMK A01 T02750204  RH  065%=      5-min Rain = 0
KST2 040425Z 14008KT 27/20 A2999 RMK A01 T02740204  RH  066%=      5-min Rain = 0
KST2 040426Z 14008KT 28/21 A2999 RMK A01 T02750205  RH  066%=      5-min Rain = 0
KST2 040427Z 14008KT 28/21 A2999 RMK A01 T02750205  RH  066%=      5-min Rain = 0
KST2 040428Z 14008KT 28/21 A2999 RMK A01 T02750205  RH  066%=      5-min Rain = 0
KST2 040429Z 14007KT 28/21 A2999 RMK A01 T02750205  RH  066%=      5-min Rain = 0
KST2 040430Z 14007KT 28/21 A2999 RMK A01 T02750205  RH  066%=      5-min Rain = 0
KST2 040431Z 14007KT 28/21 A2999 RMK A01 T02750205  RH  066%=      5-min Rain = 0
KST2 040432Z 14007KT 27/21 A2999 RMK A01 T02740205  RH  066%=      5-min Rain = 0
KST2 040433Z 14007KT 27/21 A2998 RMK A01 T02740205  RH  066%=      5-min Rain = 0
KST2 040434Z 14007KT 27/21 A2998 RMK A01 T02740205  RH  066%=      5-min Rain = 0
KST2 040435Z 15007KT 27/21 A2998 RMK A01 T02740205  RH  066%=      5-min Rain = 0
KST2 040436Z 15006KT 27/21 A2998 RMK A01 T02740205  RH  066%=      5-min Rain = 0
KST2 040437Z 15007KT 27/21 A2998 RMK A01 T02740205  RH  066%=      5-min Rain = 0
KST2 040438Z 15006KT 27/21 A2998 RMK A01 T02730205  RH  066%=      5-min Rain = 0
KST2 040439Z 15007KT 27/21 A2998 RMK A01 T02730205  RH  066%=      5-min Rain = 0
KST2 040440Z 15007KT 27/21 A2998 RMK A01 T02730205  RH  066%=      5-min Rain = 0
KST2 040441Z 15007KT 27/21 A2998 RMK A01 T02730205  RH  066%=      5-min Rain = 0
KST2 040442Z 15007KT 27/21 A2998 RMK A01 T02730205  RH  066%=      5-min Rain = 0
KST2 040443Z 15007KT 27/21 A2998 RMK A01 T02730205  RH  066%=      5-min Rain = 0
KST2 040444Z 15007KT 27/21 A2998 RMK A01 T02730205  RH  066%=      5-min Rain = 0
KST2 040445Z 14007KT 27/21 A2998 RMK A01 T02730205  RH  066%=      5-min Rain = 0
KST2 040446Z 14007KT 27/21 A2998 RMK A01 T02730205  RH  066%=      5-min Rain = 0
KST2 040447Z 14007KT 27/20 A2998 RMK A01 T02730204  RH  066%=      5-min Rain = 0
KST2 040448Z 14006KT 27/21 A2998 RMK A01 T02730205  RH  066%=      5-min Rain = 0
KST2 040449Z 14006KT 27/20 A2998 RMK A01 T02730204  RH  066%=      5-min Rain = 0
KST2 040450Z 14006KT 27/21 A2998 RMK A01 T02720205  RH  066%=      5-min Rain = 0
KST2 040451Z 14006KT 27/21 A2998 RMK A01 T02720205  RH  067%=      5-min Rain = 0
KST2 040452Z 14005KT 27/21 A2998 RMK A01 T02710205  RH  067%=      5-min Rain = 0
KST2 040453Z 14005KT 27/20 A2998 RMK A01 T02700204  RH  067%=      5-min Rain = 0
KST2 040454Z 14005KT 27/20 A2998 RMK A01 T02690204  RH  068%=      5-min Rain = 0
KST2 040455Z 14005KT 27/20 A2998 RMK A01 T02690204  RH  068%=      5-min Rain = 0
KST2 040456Z 14005KT 27/20 A2998 RMK A01 T02680204  RH  068%=      5-min Rain = 0
KST2 040457Z 14005KT 27/20 A2998 RMK A01 T02670204  RH  068%=      5-min Rain = 0
KST2 040458Z 14005KT 27/20 A2998 RMK A01 T02670204  RH  068%=      5-min Rain = 0
KST2 040459Z 14005KT 27/20 A2998 RMK A01 T02660204  RH  068%=      5-min Rain = 0

Page generated in 0.0875 seconds.